May 8, 2026
Temp
 
68.2 °F
 
Dew Pt.
 
58.8 °F
 
Humidity
 
72%
 
Pressure
 
1015.2 hPa 
  steady
Wind
 
0.0 mph 
    W
Rain
 
0.00 in 
  0.00 in/hr
UV index
 
---  
 
Solar rad.
 
100 W/m²
 
MAP MAG LOCAL DATETIME
y/m/d h:m:s
LAT
deg
LON
deg
DEPTH
km
LOCATION
map2.22026/05/08 10:01:0735.997N120.984W12.66 27 km (17 mi) SSE of King City, CA
map0.82026/05/08 09:59:3033.875N116.991W14.06 6 km ( 4 mi) SSW of Beaumont, CA
map2.22026/05/08 09:39:3032.414N115.215W17.58 7 km ( 4 mi) NNW of Delta, B.C., MX
map1.82026/05/08 09:31:2639.808N123.205W4.54 4 km ( 3 mi) ENE of Covelo, CA
map0.72026/05/08 09:21:0338.836N122.819W1.40 8 km ( 5 mi) W of Cobb, CA
map0.72026/05/08 08:50:1638.792N122.768W3.16 2 km ( 1 mi) NNW of The Geysers, CA
map0.82026/05/08 08:49:3538.785N122.747W2.89 1 km ( 1 mi) NE of The Geysers, CA
map1.42026/05/08 08:40:5633.999N117.217W3.58 7 km ( 4 mi) SE of Loma Linda, CA
map1.62026/05/08 08:18:5438.833N122.811W2.17 8 km ( 5 mi) W of Cobb, CA
map0.92026/05/08 08:03:2638.820N122.838W-0.65 9 km ( 5 mi) NW of The Geysers, CA
map1.12026/05/08 07:59:5838.819N122.763W1.81 4 km ( 2 mi) W of Cobb, CA
map1.42026/05/08 07:46:1235.571N120.821W4.67 11 km ( 7 mi) WNW of Templeton, CA
map1.32026/05/08 07:44:0238.792N122.770W3.11 2 km ( 1 mi) NW of The Geysers, CA
map1.62026/05/08 07:38:5033.999N117.215W3.66 7 km ( 4 mi) SE of Loma Linda, CA
map0.82026/05/08 07:37:4438.808N122.778W2.18 4 km ( 2 mi) NNW of The Geysers, CA
map0.82026/05/08 07:10:2138.762N122.738W1.57 2 km ( 1 mi) SE of The Geysers, CA
map1.52026/05/08 06:44:3239.805N123.201W8.67 4 km ( 3 mi) ENE of Covelo, CA
map1.72026/05/08 06:14:3733.999N117.216W3.54 7 km ( 4 mi) SE of Loma Linda, CA
map2.32026/05/08 06:06:2839.806N123.201W5.33 4 km ( 3 mi) ENE of Covelo, CA
map0.82026/05/08 06:05:5834.004N117.214W5.43 6 km ( 4 mi) SSW of Redlands, CA
map1.12026/05/08 06:04:2538.828N122.782W9.30 5 km ( 3 mi) W of Cobb, CA
map0.82026/05/08 06:03:5734.001N117.220W3.26 6 km ( 4 mi) SE of Loma Linda, CA
map0.82026/05/08 05:57:0334.002N117.215W4.37 7 km ( 4 mi) SSW of Redlands, CA
map0.72026/05/08 05:54:5338.791N122.760W1.53 2 km ( 1 mi) NNW of The Geysers, CA
MAP3.32026/05/08 05:53:0034.001N117.214W4.05 7 km ( 4 mi) SSW of Redlands, CA
map0.42026/05/08 05:32:3738.833N122.821W1.67 8 km ( 5 mi) NW of The Geysers, CA
map0.82026/05/08 05:32:1435.956N117.393W2.54 21 km (13 mi) N of Searles Valley, CA
MAP3.52026/05/08 05:15:0439.805N123.194W-0.63 5 km ( 3 mi) ENE of Covelo, CA
map0.72026/05/08 05:06:5138.818N122.761W1.48 3 km ( 2 mi) W of Cobb, CA
map0.72026/05/08 04:54:0138.826N122.814W2.21 7 km ( 5 mi) NW of The Geysers, CA
map1.82026/05/08 04:47:3439.806N123.201W-0.83 4 km ( 3 mi) ENE of Covelo, CA
map0.92026/05/08 04:21:3738.844N122.818W1.86 9 km ( 5 mi) WNW of Cobb, CA
map0.52026/05/08 04:14:3233.114N116.454W12.07 14 km ( 9 mi) ENE of Julian, CA
map0.72026/05/08 04:08:5233.110N116.454W12.57 14 km ( 9 mi) ENE of Julian, CA
map0.92026/05/08 04:04:2736.157N118.024W0.92 14 km ( 9 mi) S of Olancha, CA
map1.62026/05/08 04:02:1633.111N116.451W13.28 14 km ( 9 mi) ENE of Julian, CA
map2.12026/05/08 04:01:2033.106N116.466W11.84 13 km ( 8 mi) ENE of Julian, CA
map1.12026/05/08 03:50:5538.819N122.803W2.52 6 km ( 4 mi) NW of The Geysers, CA
map0.72026/05/08 03:50:1838.821N122.803W2.67 6 km ( 4 mi) NW of The Geysers, CA
map0.72026/05/08 03:29:4833.502N116.760W9.84 10 km ( 6 mi) SW of Anza, CA
map0.52026/05/08 03:24:0338.798N122.844W9.07 8 km ( 5 mi) WNW of The Geysers, CA
map0.62026/05/08 03:23:4538.786N122.774W3.22 2 km ( 1 mi) WNW of The Geysers, CA
map2.32026/05/08 03:01:5939.267N119.100W8.80 20 km (12 mi) SSE of Silver Springs, NV
map1.12026/05/08 02:54:0638.835N122.816W1.96 8 km ( 5 mi) W of Cobb, CA
map0.92026/05/08 02:48:0534.030N117.248W2.19 2 km ( 1 mi) SSE of Loma Linda, CA
map0.72026/05/08 02:44:1036.080N117.707W2.70 22 km (14 mi) E of Coso Junction, CA
map1.12026/05/08 02:19:4835.300N117.801W6.41 17 km (11 mi) WSW of Johannesburg, CA
map0.72026/05/08 02:19:0635.928N117.710W3.35 18 km (11 mi) E of Little Lake, CA
map0.72026/05/08 01:48:5638.831N122.817W1.60 8 km ( 5 mi) NW of The Geysers, CA
map1.62026/05/08 01:37:5836.173N120.242W11.12 11 km ( 7 mi) ENE of Coalinga, CA
map1.12026/05/08 01:30:1736.082N117.708W2.14 22 km (14 mi) E of Coso Junction, CA
map2.42026/05/08 01:27:3239.317N119.055W10.26 18 km (11 mi) SE of Silver Springs, NV
map1.72026/05/08 01:20:3438.830N122.815W1.65 8 km ( 5 mi) NW of The Geysers, CA
map0.92026/05/08 01:17:3038.842N122.836W1.66 10 km ( 6 mi) NW of The Geysers, CA
map0.72026/05/08 01:11:2938.842N122.837W1.73 10 km ( 6 mi) NW of The Geysers, CA
map0.82026/05/08 00:40:4738.822N122.767W1.46 4 km ( 2 mi) W of Cobb, CA
map2.52026/05/08 00:30:1640.306N124.498W13.48 36 km (22 mi) SSW of Ferndale, CA
map2.12026/05/08 00:24:5636.799N121.361W6.60 2 km ( 1 mi) SSE of Ridgemark, CA
map0.22026/05/08 00:17:5233.526N116.736W3.80 7 km ( 4 mi) WSW of Anza, CA
map0.62026/05/08 00:16:1934.130N116.868W5.53 13 km ( 8 mi) SSE of Big Bear Lake, CA
map0.82026/05/08 00:07:3838.802N122.769W-0.44 3 km ( 2 mi) NNW of The Geysers, CA
map1.32026/05/07 23:18:5438.800N122.815W2.74 6 km ( 4 mi) WNW of The Geysers, CA
map1.12026/05/07 23:02:2138.776N122.708W7.72 4 km ( 3 mi) E of The Geysers, CA
map2.22026/05/07 23:02:0836.404N120.952W11.58 27 km (17 mi) NE of King City, CA
map1.12026/05/07 22:54:3538.791N122.768W2.77 2 km ( 1 mi) NNW of The Geysers, CA
map1.32026/05/07 22:44:4738.781N122.728W1.51 3 km ( 2 mi) E of The Geysers, CA
map0.22026/05/07 22:36:3536.006N120.564W2.37 17 km (10 mi) NW of Parkfield, CA
map1.12026/05/07 22:34:0038.800N122.768W0.18 3 km ( 2 mi) NNW of The Geysers, CA
map0.92026/05/07 22:15:5634.330N116.924W5.36 10 km ( 6 mi) N of Big Bear Lake, CA
map1.32026/05/07 22:11:3938.813N122.796W2.53 5 km ( 3 mi) NW of The Geysers, CA
map0.92026/05/07 21:58:5633.928N117.190W13.41 4 km ( 2 mi) E of Moreno Valley, CA
map0.42026/05/07 21:37:0138.822N122.846W2.29 9 km ( 6 mi) WNW of The Geysers, CA
map1.62026/05/07 21:21:3438.178N117.836W0.91 54 km (34 mi) WNW of Tonopah, NV
map0.72026/05/07 21:03:4133.537N116.449W4.79 19 km (12 mi) SW of La Quinta, CA
map0.92026/05/07 20:53:2234.027N117.120W5.08 5 km ( 3 mi) SSE of Mentone, CA
map0.32026/05/07 20:45:3633.524N116.737W3.99 7 km ( 4 mi) WSW of Anza, CA
map0.72026/05/07 20:43:4738.841N122.805W5.21 7 km ( 5 mi) WNW of Cobb, CA
map0.32026/05/07 19:50:3738.800N122.800W10.37 5 km ( 3 mi) WNW of The Geysers, CA
map1.22026/05/07 19:48:3238.938N122.999W4.11 14 km ( 9 mi) SSW of Lakeport, CA
map2.92026/05/07 19:32:0338.374N116.426W15.93 78 km (48 mi) ENE of Tonopah, NV
map2.52026/05/07 19:32:0238.447N116.509W5.83 76 km (47 mi) NE of Tonopah, NV
map0.62026/05/07 19:27:5533.225N116.740W14.17 3 km ( 2 mi) SE of Lake Henshaw, CA
map1.72026/05/07 19:15:0533.854N118.016W21.20 2 km ( 1 mi) SW of Buena Park, CA
map0.72026/05/07 18:57:3333.243N116.805W12.10 4 km ( 2 mi) W of Lake Henshaw, CA
map1.62026/05/07 18:54:3933.958N118.908W15.16 10 km ( 7 mi) WSW of Malibu, CA
map1.42026/05/07 18:02:4133.516N116.741W2.93 8 km ( 5 mi) SW of Anza, CA
map0.82026/05/07 18:00:3234.756N117.806W2.83 16 km (10 mi) N of Lake Los Angeles, CA
map0.92026/05/07 17:45:3338.798N122.778W3.19 3 km ( 2 mi) NW of The Geysers, CA
map2.42026/05/07 17:40:5038.252N116.260W5.04 87 km (54 mi) ENE of Tonopah, NV
map1.02026/05/07 17:40:2538.836N122.809W2.28 8 km ( 5 mi) WNW of Cobb, CA
map1.52026/05/07 17:40:2236.197N117.844W3.15 17 km (11 mi) ESE of Olancha, CA
map0.82026/05/07 17:37:2538.783N122.741W0.41 1 km ( 1 mi) ENE of The Geysers, CA
map1.12026/05/07 17:26:0738.750N122.706W-0.07 5 km ( 3 mi) SE of The Geysers, CA
map1.02026/05/07 16:13:3735.473N118.374W2.12 17 km (10 mi) SE of Bodfish, CA
map0.62026/05/07 16:04:3436.025N117.772W1.00 16 km (10 mi) NE of Little Lake, CA
map0.82026/05/07 16:02:5138.837N122.836W1.58 10 km ( 6 mi) NW of The Geysers, CA
map0.62026/05/07 15:58:3936.029N117.772W1.32 16 km (10 mi) NE of Little Lake, CA
map1.92026/05/07 15:49:5734.166N117.478W6.92 8 km ( 5 mi) NNW of Fontana, CA
map1.32026/05/07 15:40:2933.517N116.739W2.94 7 km ( 5 mi) SW of Anza, CA
map0.92026/05/07 15:21:3234.024N116.998W18.19 4 km ( 3 mi) ESE of Yucaipa, CA
map0.62026/05/07 15:21:2838.837N122.782W2.14 5 km ( 3 mi) WNW of Cobb, CA
map0.52026/05/07 15:03:0833.158N116.522W7.03 12 km ( 7 mi) NE of Julian, CA
map2.02026/05/07 14:46:5937.369N118.695W7.56 21 km (13 mi) W of West Bishop, CA
map0.92026/05/07 14:29:4034.567N117.811W9.23 5 km ( 3 mi) SSE of Lake Los Angeles, CA
map0.72026/05/07 14:27:4838.821N122.793W2.69 6 km ( 4 mi) NNW of The Geysers, CA
map0.72026/05/07 14:23:2433.521N116.738W3.87 7 km ( 4 mi) WSW of Anza, CA
map0.82026/05/07 13:52:1838.823N122.846W2.12 9 km ( 6 mi) WNW of The Geysers, CA
map0.92026/05/07 13:28:0533.760N116.058W1.08 14 km ( 9 mi) NE of Coachella, CA
map0.72026/05/07 13:25:5638.837N122.824W1.61 9 km ( 6 mi) NW of The Geysers, CA
map1.02026/05/07 13:05:1438.825N122.801W2.58 7 km ( 4 mi) NW of The Geysers, CA
map1.52026/05/07 12:58:5033.827N117.487W-0.48 3 km ( 2 mi) SSE of Quarry at CORONA (Probable quarry explosion)
map1.42026/05/07 12:52:2937.255N121.633W5.40 14 km ( 9 mi) N of Morgan Hill, CA
map0.92026/05/07 12:52:1738.814N122.787W0.78 5 km ( 3 mi) NNW of The Geysers, CA
map1.12026/05/07 12:40:5733.760N116.059W1.58 14 km ( 9 mi) NE of Coachella, CA
map1.12026/05/07 12:23:3938.792N122.776W1.93 2 km ( 1 mi) NW of The Geysers, CA
map0.42026/05/07 12:13:1838.790N122.777W3.70 2 km ( 1 mi) NW of The Geysers, CA
map0.42026/05/07 11:59:2238.831N122.820W1.66 8 km ( 5 mi) NW of The Geysers, CA
map1.52026/05/07 11:58:4534.999N118.177W1.84 6 km ( 4 mi) S of Mojave, CA
map1.82026/05/07 11:55:2835.470N120.611W3.67 6 km ( 4 mi) ESE of Atascadero, CA
map0.62026/05/07 11:35:4536.024N117.776W1.56 15 km ( 9 mi) NE of Little Lake, CA
map2.52026/05/07 11:23:5739.797N123.194W5.23 5 km ( 3 mi) E of Covelo, CA
map1.62026/05/07 11:20:5538.433N116.513W5.87 75 km (46 mi) ENE of Tonopah, NV
map2.72026/05/07 11:17:3139.797N123.197W6.75 4 km ( 3 mi) E of Covelo, CA
map1.52026/05/07 11:09:0134.001N117.217W3.38 7 km ( 4 mi) SE of Loma Linda, CA
map1.52026/05/07 11:07:4538.458N116.508W2.30 76 km (47 mi) NE of Tonopah, NV
map1.22026/05/07 10:58:1838.821N122.786W14.11 5 km ( 3 mi) W of Cobb, CA
map0.52026/05/07 10:51:1635.864N117.703W10.38 20 km (12 mi) ESE of Little Lake, CA
map1.12026/05/07 10:45:3738.815N122.816W3.19 7 km ( 4 mi) NW of The Geysers, CA
map0.72026/05/07 10:35:5438.798N122.781W9.63 3 km ( 2 mi) NW of The Geysers, CA
map0.62026/05/07 10:22:2638.800N122.762W3.14 3 km ( 2 mi) NNW of The Geysers, CA
map0.72026/05/07 10:10:4233.395N116.361W6.51 15 km (10 mi) N of Borrego Springs, CA
map1.82026/05/07 09:58:4334.022N117.224W15.43 5 km ( 3 mi) SE of Loma Linda, CA
map0.72026/05/07 09:43:5033.220N116.738W8.78 3 km ( 2 mi) SE of Lake Henshaw, CA
MAP3.12026/05/07 09:37:4635.068N116.984W1.69 19 km (12 mi) N of Barstow, CA
map0.62026/05/07 09:26:3035.916N117.736W7.92 16 km (10 mi) E of Little Lake, CA
map1.82026/05/07 09:20:2438.467N116.480W4.76 79 km (49 mi) NE of Tonopah, NV
map0.42026/05/07 09:00:4934.254N117.601W1.67 9 km ( 6 mi) W of Lytle Creek, CA
map0.92026/05/07 08:50:5535.916N117.736W8.30 16 km (10 mi) E of Little Lake, CA
map1.22026/05/07 08:47:3537.998N122.276W4.78 2 km ( 1 mi) ESE of Pinole, CA
map1.12026/05/07 08:21:3938.815N122.794W2.42 5 km ( 3 mi) NW of The Geysers, CA
map1.22026/05/07 08:18:5133.919N118.293W10.20 3 km ( 2 mi) W of Willowbrook, CA
map1.02026/05/07 08:17:4438.786N122.783W2.79 2 km ( 2 mi) WNW of The Geysers, CA
map1.62026/05/07 08:14:2133.920N118.295W11.80 4 km ( 2 mi) W of Willowbrook, CA
map1.62026/05/07 07:42:2536.014N117.802W1.39 13 km ( 8 mi) NE of Little Lake, CA
map0.92026/05/07 07:35:1433.520N116.737W2.62 7 km ( 4 mi) WSW of Anza, CA
map0.82026/05/07 07:26:5033.759N116.057W2.01 14 km ( 9 mi) NE of Coachella, CA
map0.82026/05/07 07:23:1834.012N117.216W7.32 6 km ( 4 mi) SSW of Redlands, CA
map0.82026/05/07 06:46:0738.837N122.807W1.66 7 km ( 5 mi) WNW of Cobb, CA
map1.32026/05/07 06:40:3838.791N122.777W1.47 2 km ( 1 mi) NW of The Geysers, CA
map0.82026/05/07 06:00:1532.905N116.262W9.52 27 km (17 mi) ENE of Pine Valley, CA
map1.02026/05/07 05:54:1738.783N122.765W4.28 1 km ( 1 mi) NW of The Geysers, CA
map1.92026/05/07 05:50:1637.107N118.317W12.12 7 km ( 4 mi) SSW of Big Pine, CA
map0.52026/05/07 05:38:1438.790N122.780W2.56 2 km ( 2 mi) NW of The Geysers, CA
map0.12026/05/07 05:30:1333.542N116.784W6.71 10 km ( 6 mi) W of Anza, CA
map1.12026/05/07 05:27:1538.802N122.823W2.44 6 km ( 4 mi) WNW of The Geysers, CA
map0.32026/05/07 05:05:5633.154N116.520W6.82 11 km ( 7 mi) NE of Julian, CA
map1.12026/05/07 05:02:5132.849N115.619W12.16 5 km ( 3 mi) W of Imperial, CA
map0.72026/05/07 04:58:1738.805N122.751W0.89 3 km ( 2 mi) SW of Cobb, CA
map1.22026/05/07 04:57:5038.834N122.786W2.32 6 km ( 3 mi) WNW of Cobb, CA
map0.82026/05/07 04:38:3038.794N122.758W0.32 2 km ( 1 mi) N of The Geysers, CA
map0.82026/05/07 04:23:0538.795N122.758W0.82 2 km ( 1 mi) N of The Geysers, CA
map0.22026/05/07 04:17:4438.827N122.821W3.53 8 km ( 5 mi) NW of The Geysers, CA
map1.32026/05/07 04:15:1238.799N122.750W1.54 2 km ( 2 mi) NNE of The Geysers, CA
map1.72026/05/07 04:14:4733.999N117.217W4.71 7 km ( 4 mi) SE of Loma Linda, CA
map1.52026/05/07 04:05:1838.761N122.721W1.23 4 km ( 2 mi) ESE of The Geysers, CA
map0.42026/05/07 04:04:1338.791N122.779W1.49 2 km ( 2 mi) NW of The Geysers, CA
map1.52026/05/07 04:00:4433.135N117.051W20.91 3 km ( 2 mi) ENE of Escondido, CA
map0.82026/05/07 03:51:2938.783N122.764W4.00 1 km ( 1 mi) NW of The Geysers, CA
map0.82026/05/07 03:50:4438.786N122.779W2.49 2 km ( 1 mi) WNW of The Geysers, CA
map0.72026/05/07 03:46:3938.777N122.821W7.09 6 km ( 3 mi) W of The Geysers, CA
map0.92026/05/07 03:31:5538.789N122.776W8.17 2 km ( 1 mi) NW of The Geysers, CA
map1.02026/05/07 03:30:0338.746N122.709W1.07 5 km ( 3 mi) SE of The Geysers, CA
map1.22026/05/07 03:29:0738.795N122.759W0.57 2 km ( 1 mi) N of The Geysers, CA
map0.82026/05/07 03:28:3438.795N122.759W0.68 2 km ( 1 mi) N of The Geysers, CA
map1.92026/05/07 03:26:4938.794N122.758W0.36 2 km ( 1 mi) N of The Geysers, CA
map0.82026/05/07 03:26:4238.794N122.779W3.71 3 km ( 2 mi) NW of The Geysers, CA
map0.82026/05/07 03:20:5438.809N122.772W1.30 4 km ( 2 mi) NNW of The Geysers, CA
map1.42026/05/07 03:18:5238.747N122.715W1.06 5 km ( 3 mi) SE of The Geysers, CA
map1.62026/05/07 03:17:2138.795N122.774W2.98 2 km ( 2 mi) NW of The Geysers, CA
map0.42026/05/07 03:14:0738.797N122.782W3.53 3 km ( 2 mi) NW of The Geysers, CA
map1.12026/05/07 03:11:1538.805N122.773W0.38 3 km ( 2 mi) NNW of The Geysers, CA
map1.02026/05/07 03:11:0833.974N116.851W20.20 6 km ( 4 mi) NNE of Banning, CA
map0.62026/05/07 03:10:5833.138N117.044W20.89 4 km ( 2 mi) ENE of Escondido, CA
map1.02026/05/07 03:10:3038.792N122.771W3.14 2 km ( 1 mi) NW of The Geysers, CA
map0.92026/05/07 03:10:1438.787N122.786W1.66 3 km ( 2 mi) WNW of The Geysers, CA
map0.92026/05/07 03:08:3738.755N122.724W3.77 4 km ( 2 mi) SE of The Geysers, CA
map0.32026/05/07 03:07:4638.824N122.845W2.11 9 km ( 6 mi) NW of The Geysers, CA
map1.22026/05/07 03:07:2738.743N122.707W1.09 6 km ( 4 mi) SE of The Geysers, CA
map2.02026/05/07 03:06:2738.458N116.515W1.23 76 km (47 mi) NE of Tonopah, NV
map1.22026/05/07 03:05:4038.787N122.777W2.64 2 km ( 1 mi) WNW of The Geysers, CA
map0.72026/05/07 03:05:2138.791N122.780W1.68 3 km ( 2 mi) NW of The Geysers, CA
map0.82026/05/07 03:04:2738.780N122.784W1.03 2 km ( 1 mi) W of The Geysers, CA
map1.72026/05/07 03:02:0938.797N122.777W2.95 3 km ( 2 mi) NW of The Geysers, CA
map1.12026/05/07 02:58:4338.795N122.780W3.57 3 km ( 2 mi) NW of The Geysers, CA
map0.82026/05/07 02:57:4638.787N122.780W2.36 2 km ( 1 mi) WNW of The Geysers, CA
map1.52026/05/07 02:57:1538.651N122.590W7.62 8 km ( 5 mi) N of Calistoga, CA
map2.72026/05/07 02:54:4038.740N122.708W1.82 6 km ( 4 mi) SE of The Geysers, CA
map1.32026/05/07 02:52:5038.796N122.761W0.89 2 km ( 1 mi) NNW of The Geysers, CA
map0.82026/05/07 02:52:3438.786N122.739W0.60 2 km ( 1 mi) ENE of The Geysers, CA
map0.92026/05/07 02:52:0838.740N122.705W0.28 6 km ( 4 mi) SE of The Geysers, CA
map0.42026/05/07 02:52:0238.805N122.754W2.69 3 km ( 2 mi) N of The Geysers, CA
map0.72026/05/07 02:51:4838.793N122.782W2.45 3 km ( 2 mi) NW of The Geysers, CA
map1.42026/05/07 02:51:1938.742N122.706W0.82 6 km ( 4 mi) SE of The Geysers, CA
map2.12026/05/07 02:49:5638.807N122.748W0.04 3 km ( 2 mi) SW of Cobb, CA
map2.32026/05/07 02:49:5038.807N122.749W0.37 3 km ( 2 mi) SW of Cobb, CA
map1.22026/05/07 02:49:2038.817N122.787W0.30 5 km ( 3 mi) NNW of The Geysers, CA
map1.52026/05/07 02:48:5232.910N115.808W8.19 22 km (14 mi) SW of Westmorland, CA
map0.72026/05/07 02:48:3138.794N122.779W1.64 3 km ( 2 mi) NW of The Geysers, CA
map1.82026/05/07 02:48:0338.784N122.783W1.18 2 km ( 2 mi) WNW of The Geysers, CA
map0.92026/05/07 02:47:5038.759N122.719W0.60 4 km ( 2 mi) ESE of The Geysers, CA
map1.62026/05/07 02:47:3338.788N122.777W3.83 2 km ( 1 mi) WNW of The Geysers, CA
map2.12026/05/07 02:46:4038.603N122.919W4.14 4 km ( 3 mi) W of Healdsburg, CA
map1.82026/05/07 02:45:3238.815N122.784W-0.59 5 km ( 3 mi) NNW of The Geysers, CA
map1.92026/05/07 02:45:2338.788N122.749W3.29 1 km ( 1 mi) NNE of The Geysers, CA
map2.52026/05/07 02:44:2738.812N122.777W0.24 4 km ( 3 mi) NNW of The Geysers, CA
map1.92026/05/07 02:44:0338.792N122.780W1.14 3 km ( 2 mi) NW of The Geysers, CA
MAP4.42026/05/07 02:42:4338.791N122.777W3.68 2 km ( 1 mi) NW of The Geysers, CA
map2.12026/05/07 02:35:2939.271N119.099W9.18 19 km (12 mi) SE of Silver Springs, NV
map0.82026/05/07 02:34:0733.873N117.772W9.73 4 km ( 3 mi) ESE of Yorba Linda, CA
map1.72026/05/07 01:53:5632.479N115.446W8.86 13 km ( 8 mi) SW of Puebla, B.C., MX
map0.82026/05/07 01:53:3038.834N122.817W1.58 8 km ( 5 mi) NW of The Geysers, CA
map0.32026/05/07 01:39:5333.683N116.963W13.99 7 km ( 4 mi) S of Hemet, CA
map0.32026/05/07 01:30:3933.159N116.518W5.96 12 km ( 7 mi) NE of Julian, CA
map0.42026/05/07 01:24:3234.009N117.216W6.37 6 km ( 4 mi) SSW of Redlands, CA
map0.52026/05/07 00:43:2635.626N117.474W5.75 17 km (11 mi) SSW of Searles Valley, CA
map0.62026/05/07 00:42:0833.486N116.548W10.42 14 km ( 9 mi) ESE of Anza, CA
map1.22026/05/07 00:41:1938.834N122.814W1.16 8 km ( 5 mi) W of Cobb, CA
map1.22026/05/07 00:28:3638.835N122.807W1.76 7 km ( 5 mi) WNW of Cobb, CA
map0.62026/05/07 00:26:0533.050N116.422W12.07 17 km (11 mi) E of Julian, CA
map2.12026/05/07 00:10:5734.002N117.212W4.82 6 km ( 4 mi) SSW of Redlands, CA
map0.72026/05/07 00:05:0835.669N117.534W4.99 14 km ( 9 mi) ENE of Ridgecrest, CA
map0.42026/05/07 00:05:0635.323N117.820W2.97 18 km (11 mi) WSW of Johannesburg, CA
map1.42026/05/06 23:48:0734.439N119.396W4.14 12 km ( 8 mi) ENE of Carpinteria, CA
map1.12026/05/06 23:41:3438.793N122.759W0.64 2 km ( 1 mi) N of The Geysers, CA
map0.72026/05/06 23:40:4938.792N122.759W0.47 2 km ( 1 mi) N of The Geysers, CA
map1.12026/05/06 23:40:1833.458N116.424W3.47 23 km (14 mi) N of Borrego Springs, CA
map0.42026/05/06 23:38:0235.731N117.535W7.00 12 km ( 8 mi) WSW of Searles Valley, CA
map0.92026/05/06 23:14:1837.761N122.169W7.05 4 km ( 3 mi) NNW of San Leandro, CA
map0.72026/05/06 23:05:5934.002N117.212W3.25 6 km ( 4 mi) SSW of Redlands, CA
map1.42026/05/06 22:49:2935.354N118.503W3.35 25 km (16 mi) N of Tehachapi, CA
map1.12026/05/06 22:48:1538.799N122.781W4.00 3 km ( 2 mi) NW of The Geysers, CA
map0.62026/05/06 22:27:1333.512N116.743W4.11 8 km ( 5 mi) SW of Anza, CA
map0.62026/05/06 22:27:1333.517N116.741W3.72 8 km ( 5 mi) SW of Anza, CA
map0.42026/05/06 22:15:2438.835N122.820W2.07 8 km ( 5 mi) NW of The Geysers, CA
map0.82026/05/06 22:14:1238.799N122.772W1.50 3 km ( 2 mi) NNW of The Geysers, CA
map0.82026/05/06 21:45:4433.369N116.883W6.94 2 km ( 1 mi) NW of Palomar Observatory, CA
map0.62026/05/06 21:43:2633.510N116.488W13.49 18 km (11 mi) ESE of Anza, CA
map0.52026/05/06 21:24:1438.786N122.817W5.82 5 km ( 3 mi) W of The Geysers, CA
map0.42026/05/06 21:06:0138.824N122.813W1.67 7 km ( 4 mi) NW of The Geysers, CA
map0.82026/05/06 21:03:1838.800N122.772W1.29 3 km ( 2 mi) NNW of The Geysers, CA
map1.12026/05/06 21:02:2538.788N122.723W1.99 3 km ( 2 mi) ENE of The Geysers, CA
MAP3.12026/05/06 20:56:3138.793N122.714W2.14 3 km ( 2 mi) SSE of Cobb, CA
map1.02026/05/06 20:55:2338.794N122.722W1.89 3 km ( 2 mi) S of Cobb, CA
map0.22026/05/06 20:54:2433.694N117.016W11.38 6 km ( 4 mi) ESE of Winchester, CA
map1.62026/05/06 20:47:5439.275N119.107W7.43 19 km (12 mi) SSE of Silver Springs, NV
map1.52026/05/06 20:32:4436.290N120.874W5.81 24 km (15 mi) ENE of King City, CA
map1.12026/05/06 20:17:4938.822N122.846W2.22 9 km ( 6 mi) WNW of The Geysers, CA
map0.72026/05/06 20:08:2533.840N117.873W9.07 2 km ( 1 mi) ENE of Anaheim, CA
map0.92026/05/06 19:45:0135.487N118.291W5.07 21 km (13 mi) ESE of Bodfish, CA
map1.52026/05/06 19:05:4038.441N116.510W8.65 75 km (47 mi) NE of Tonopah, NV
map1.02026/05/06 19:03:5538.822N122.853W2.41 10 km ( 6 mi) WNW of The Geysers, CA
map0.72026/05/06 19:02:1638.838N122.836W1.81 10 km ( 6 mi) NW of The Geysers, CA
map0.62026/05/06 18:48:4238.838N122.836W1.84 10 km ( 6 mi) NW of The Geysers, CA
map1.52026/05/06 18:48:3538.838N122.836W1.83 10 km ( 6 mi) NW of The Geysers, CA
map1.82026/05/06 18:45:0938.471N116.508W7.17 77 km (48 mi) NE of Tonopah, NV
map1.22026/05/06 18:23:0233.259N115.646W2.83 12 km ( 7 mi) W of Niland, CA
map1.02026/05/06 17:58:4433.264N115.668W3.51 11 km ( 7 mi) SSE of Bombay Beach, CA
map0.42026/05/06 17:46:0133.799N116.935W12.25 3 km ( 2 mi) NE of San Jacinto, CA
map0.42026/05/06 17:36:1238.827N122.853W1.69 10 km ( 6 mi) NW of The Geysers, CA
map0.82026/05/06 17:29:0438.821N122.843W1.90 9 km ( 6 mi) WNW of The Geysers, CA
map0.92026/05/06 17:07:5935.601N117.449W8.95 19 km (12 mi) SSW of Searles Valley, CA
map0.72026/05/06 16:36:0537.964N122.237W22.61 5 km ( 3 mi) ESE of El Sobrante, CA
map2.32026/05/06 16:26:4136.666N121.324W5.11 17 km (10 mi) SSE of Ridgemark, CA
map1.92026/05/06 16:20:3938.003N122.283W5.02 1 km ( 1 mi) E of Pinole, CA
map1.72026/05/06 16:08:5539.310N119.074W10.94 17 km (11 mi) SE of Silver Springs, NV
map1.12026/05/06 16:08:4538.833N122.815W1.73 8 km ( 5 mi) NW of The Geysers, CA
map1.62026/05/06 15:41:1633.755N120.225W5.68 24 km (15 mi) SSW of Santa Rosa Is., CA
map2.02026/05/06 15:40:3038.584N122.325W4.10 11 km ( 7 mi) E of Angwin, CA
map1.52026/05/06 15:34:3837.444N118.806W7.45 26 km (16 mi) SE of Mammoth Lakes, CA
map1.02026/05/06 15:27:0534.002N117.217W4.55 7 km ( 4 mi) SE of Loma Linda, CA
map0.82026/05/06 15:18:1635.871N117.685W4.66 21 km (13 mi) ESE of Little Lake, CA
map1.32026/05/06 14:47:3338.857N122.806W1.29 8 km ( 5 mi) WNW of Cobb, CA
map1.02026/05/06 14:43:0038.839N122.781W1.71 5 km ( 3 mi) WNW of Cobb, CA
map0.72026/05/06 14:26:3035.247N118.618W5.92 20 km (12 mi) ENE of Arvin, CA
map1.82026/05/06 14:09:1637.134N115.323W11.41 29 km (18 mi) SSW of Alamo, NV
map1.22026/05/06 14:03:0336.026N117.778W1.64 15 km ( 9 mi) NE of Little Lake, CA
map1.42026/05/06 13:46:2536.740N121.454W4.48 11 km ( 7 mi) SW of Ridgemark, CA
map0.32026/05/06 13:28:2438.817N122.817W2.46 7 km ( 4 mi) NW of The Geysers, CA
map0.92026/05/06 13:21:0333.975N116.744W17.84 7 km ( 5 mi) NNE of Cabazon, CA
map0.82026/05/06 13:00:0338.798N122.809W2.15 5 km ( 3 mi) WNW of The Geysers, CA
map0.82026/05/06 12:43:2738.806N122.771W1.95 3 km ( 2 mi) NNW of The Geysers, CA
map1.32026/05/06 12:27:4132.905N116.948W3.76 6 km ( 4 mi) NNW of Lakeside, CA
map2.42026/05/06 12:26:0136.673N121.326W6.71 16 km (10 mi) SSE of Ridgemark, CA
map1.62026/05/06 12:17:1838.802N122.779W1.41 3 km ( 2 mi) NW of The Geysers, CA
map1.12026/05/06 12:13:1434.179N117.927W-0.91 22 km (14 mi) NNW of Quarry at POMONA (Probable quarry explosion)
map1.02026/05/06 11:49:5934.538N119.990W-0.79 16 km (10 mi) NE of Quarry at SYP (Probable quarry explosion)
map1.32026/05/06 11:46:4238.774N122.739W1.01 2 km ( 1 mi) ESE of The Geysers, CA
map1.22026/05/06 11:39:1238.254N122.324W5.86 6 km ( 4 mi) SW of Napa, CA
map0.92026/05/06 11:18:3233.762N116.064W0.76 14 km ( 9 mi) NE of Coachella, CA
map0.52026/05/06 11:17:1433.877N116.154W1.64 18 km (11 mi) NNE of Indio, CA
map0.92026/05/06 11:06:0834.007N117.213W4.56 6 km ( 4 mi) SSW of Redlands, CA
map0.82026/05/06 11:01:5336.027N117.774W1.65 16 km (10 mi) NE of Little Lake, CA
map1.62026/05/06 10:59:0939.614N120.441W5.19 22 km (14 mi) S of Portola, CA
map1.02026/05/06 10:45:4934.008N117.216W5.78 6 km ( 4 mi) SE of Loma Linda, CA
map1.12026/05/06 10:45:2333.329N116.878W10.29 3 km ( 2 mi) SSW of Palomar Observatory, CA
map1.72026/05/06 10:42:4234.003N117.210W4.66 6 km ( 4 mi) SSW of Redlands, CA
map2.02026/05/06 10:39:4034.002N117.210W4.25 6 km ( 4 mi) SSW of Redlands, CA
map1.02026/05/06 10:38:0334.005N117.208W3.53 6 km ( 4 mi) SSW of Redlands, CA
map0.82026/05/06 10:34:4838.786N122.762W1.24 1 km ( 1 mi) NNW of The Geysers, CA
map1.02026/05/06 10:33:2434.004N117.216W5.02 6 km ( 4 mi) SE of Loma Linda, CA
map0.32026/05/06 10:24:4438.825N122.767W1.94 4 km ( 2 mi) W of Cobb, CA
map1.22026/05/06 10:17:4534.014N117.209W5.72 5 km ( 3 mi) SSW of Redlands, CA
map0.92026/05/06 10:07:3338.814N122.812W2.38 6 km ( 4 mi) NW of The Geysers, CA
map1.12026/05/06 10:06:3735.889N117.711W7.75 18 km (11 mi) ESE of Little Lake, CA
map1.92026/05/06 09:47:1534.002N117.213W3.25 7 km ( 4 mi) SSW of Redlands, CA
map2.02026/05/06 09:46:3938.704N122.916W1.03 11 km ( 7 mi) NNW of Healdsburg, CA
MAP3.12026/05/06 09:45:1534.002N117.211W4.46 6 km ( 4 mi) SSW of Redlands, CA
MAP3.32026/05/06 09:45:1534.006N117.209W3.56 6 km ( 4 mi) SSW of Redlands, CA
map1.42026/05/06 08:57:2133.850N117.493W-0.51 1 km ( 0 mi) E of Quarry at CORONA (Probable quarry explosion)
map1.32026/05/06 08:56:3438.836N122.789W2.08 6 km ( 4 mi) WNW of Cobb, CA
map0.62026/05/06 08:49:0038.822N122.808W2.69 7 km ( 4 mi) NW of The Geysers, CA
map1.02026/05/06 08:37:5238.808N122.794W13.45 5 km ( 3 mi) NW of The Geysers, CA
map1.02026/05/06 08:20:0533.762N116.061W0.89 14 km ( 9 mi) NE of Coachella, CA
map0.82026/05/06 07:46:0135.676N117.534W9.36 14 km ( 9 mi) ENE of Ridgecrest, CA
map1.02026/05/06 07:27:4738.761N122.712W1.48 4 km ( 3 mi) ESE of The Geysers, CA
map2.12026/05/06 07:20:2040.152N119.864W7.58 53 km (33 mi) N of Cold Springs, NV
map0.92026/05/06 07:09:4938.826N122.765W1.99 4 km ( 2 mi) W of Cobb, CA
map0.82026/05/06 06:53:1134.009N117.211W4.09 6 km ( 4 mi) SSW of Redlands, CA
map2.62026/05/06 06:36:2339.279N119.086W8.14 19 km (12 mi) SE of Silver Springs, NV
map1.72026/05/06 06:29:3438.478N116.496W1.42 79 km (49 mi) NE of Tonopah, NV
map0.52026/05/06 06:29:0933.297N116.736W13.03 7 km ( 4 mi) NNE of Lake Henshaw, CA
map1.12026/05/06 06:19:2133.339N116.226W11.21 17 km (10 mi) NE of Borrego Springs, CA
map1.72026/05/06 05:31:3738.508N116.457W3.10 83 km (52 mi) NE of Tonopah, NV
map0.62026/05/06 05:23:4134.045N117.165W7.50 2 km ( 1 mi) SE of Redlands, CA
map0.32026/05/06 05:23:0433.568N116.792W7.52 11 km ( 7 mi) W of Anza, CA
map0.52026/05/06 05:10:4736.020N117.805W1.59 13 km ( 8 mi) NE of Little Lake, CA
map1.82026/05/06 05:03:5038.429N116.515W1.43 74 km (46 mi) ENE of Tonopah, NV
map0.72026/05/06 04:50:0133.882N116.857W14.43 5 km ( 3 mi) SSE of Banning, CA
map0.62026/05/06 04:49:2733.883N116.859W15.23 5 km ( 3 mi) SSE of Banning, CA
map0.72026/05/06 04:24:4034.009N117.209W5.35 6 km ( 4 mi) SSW of Redlands, CA
map1.42026/05/06 04:24:2832.885N115.509W8.05 7 km ( 4 mi) NE of Imperial, CA
map0.42026/05/06 04:20:3533.460N116.579W6.08 14 km ( 9 mi) SE of Anza, CA
map2.62026/05/06 04:17:2139.270N119.102W9.00 19 km (12 mi) SSE of Silver Springs, NV
map1.02026/05/06 04:16:5934.009N117.208W4.72 6 km ( 4 mi) SSW of Redlands, CA
map1.52026/05/06 04:13:2534.007N117.206W3.30 6 km ( 4 mi) SSW of Redlands, CA
map1.62026/05/06 04:12:5435.636N117.460W6.52 15 km (10 mi) SSW of Searles Valley, CA
map1.62026/05/06 04:09:0434.007N117.206W3.56 6 km ( 4 mi) SSW of Redlands, CA
map1.82026/05/06 03:56:1238.839N122.806W1.97 7 km ( 5 mi) WNW of Cobb, CA
map2.62026/05/06 03:52:5939.400N119.047W12.10 15 km (10 mi) E of Silver Springs, NV
map1.12026/05/06 03:15:0538.779N122.757W1.01 0 km ( 0 mi) N of The Geysers, CA
map1.92026/05/06 03:14:5338.778N122.759W0.71 0 km ( 0 mi) WNW of The Geysers, CA
map1.32026/05/06 03:10:1337.201N121.594W2.65 9 km ( 6 mi) NE of Morgan Hill, CA
map1.62026/05/06 02:59:0639.401N119.069W10.03 13 km ( 8 mi) E of Silver Springs, NV
map1.12026/05/06 02:49:0138.823N122.761W1.85 3 km ( 2 mi) W of Cobb, CA
map0.82026/05/06 02:37:4938.822N122.811W3.01 7 km ( 4 mi) NW of The Geysers, CA
map1.02026/05/06 02:16:3438.836N122.791W1.96 6 km ( 4 mi) WNW of Cobb, CA
map0.72026/05/06 02:11:3433.304N116.255W3.38 12 km ( 8 mi) ENE of Borrego Springs, CA
map1.92026/05/06 01:46:3838.273N116.603W5.98 59 km (37 mi) ENE of Tonopah, NV
map1.72026/05/06 01:37:4839.196N123.346W1.29 13 km ( 8 mi) WNW of Ukiah, CA
map0.92026/05/06 01:18:5938.819N122.766W1.73 4 km ( 2 mi) W of Cobb, CA
map1.62026/05/06 00:45:4038.439N116.501W8.05 76 km (47 mi) ENE of Tonopah, NV
map0.72026/05/06 00:43:1238.820N122.788W1.20 5 km ( 3 mi) NNW of The Geysers, CA
map0.92026/05/06 00:42:5033.761N116.059W0.92 14 km ( 9 mi) NE of Coachella, CA
map0.82026/05/06 00:30:5835.728N118.502W10.75 5 km ( 3 mi) WNW of Wofford Heights, CA
map0.62026/05/06 00:15:3833.681N117.023W13.41 6 km ( 4 mi) ESE of Winchester, CA
map2.32026/05/06 00:14:1440.406N123.325W27.02 20 km (13 mi) SW of Hayfork, CA
map1.22026/05/06 00:12:4934.096N118.190W10.21 3 km ( 2 mi) SSE of Highland Park, CA
map0.92026/05/06 00:02:1338.783N122.758W2.18 1 km ( 0 mi) NNW of The Geysers, CA
map1.12026/05/05 23:56:4238.783N122.758W1.98 1 km ( 0 mi) NNW of The Geysers, CA
map1.62026/05/05 23:54:2938.818N122.790W2.51 5 km ( 3 mi) NNW of The Geysers, CA
map0.42026/05/05 23:44:1933.511N116.550W13.56 12 km ( 8 mi) ESE of Anza, CA
map1.02026/05/05 23:40:3333.696N116.721W17.34 5 km ( 3 mi) S of Idyllwild, CA
map0.72026/05/05 23:33:2935.979N117.434W0.39 24 km (15 mi) N of Searles Valley, CA
map2.02026/05/05 23:23:3438.457N116.500W9.21 77 km (48 mi) NE of Tonopah, NV
map0.62026/05/05 23:04:5133.031N116.293W6.77 20 km (12 mi) SW of Ocotillo Wells, CA
map0.82026/05/05 23:04:4338.843N122.878W2.01 13 km ( 8 mi) ENE of Cloverdale, CA
map1.92026/05/05 23:02:1237.122N115.300W8.69 30 km (18 mi) SSW of Alamo, NV
map1.42026/05/05 22:41:1432.838N115.619W11.84 5 km ( 3 mi) WSW of Imperial, CA
map1.72026/05/05 22:34:2539.270N119.105W8.98 19 km (12 mi) SSE of Silver Springs, NV
map1.52026/05/05 22:32:2338.781N122.725W1.73 3 km ( 2 mi) E of The Geysers, CA
map1.82026/05/05 22:27:2739.273N119.111W8.61 19 km (12 mi) SSE of Silver Springs, NV
map2.32026/05/05 22:16:2739.272N119.108W8.44 19 km (12 mi) SSE of Silver Springs, NV
map1.62026/05/05 22:15:4839.273N119.123W6.26 18 km (11 mi) SSE of Silver Springs, NV
map1.32026/05/05 22:15:0134.035N116.319W8.17 11 km ( 7 mi) S of Joshua Tree, CA
map1.22026/05/05 21:30:5338.876N122.911W4.65 12 km ( 8 mi) NE of Cloverdale, CA
map1.02026/05/05 21:29:3834.166N117.483W6.41 8 km ( 5 mi) NNW of Fontana, CA
map1.92026/05/05 21:15:4138.386N116.235W10.23 94 km (58 mi) ENE of Tonopah, NV
map1.72026/05/05 21:15:1538.437N116.502W10.53 76 km (47 mi) ENE of Tonopah, NV
MAP3.42026/05/05 21:04:1339.278N119.082W6.00 20 km (12 mi) SE of Silver Springs, NV
map1.32026/05/05 20:51:1836.905N121.508W5.89 7 km ( 4 mi) NNE of San Juan Bautista, CA
map1.02026/05/05 20:21:1936.624N121.278W6.92 20 km (12 mi) NE of Gonzales, CA
map2.02026/05/05 20:20:5634.000N117.216W4.82 7 km ( 4 mi) SE of Loma Linda, CA
map0.92026/05/05 20:14:3038.820N122.812W2.87 7 km ( 4 mi) NW of The Geysers, CA
map0.22026/05/05 20:08:5838.835N122.785W1.74 6 km ( 3 mi) WNW of Cobb, CA
map1.32026/05/05 19:54:0934.908N119.611W9.99 25 km (16 mi) SW of Maricopa, CA
map1.92026/05/05 19:28:4136.011N117.801W1.52 13 km ( 8 mi) NE of Little Lake, CA
map0.32026/05/05 19:16:1238.838N122.839W1.82 10 km ( 6 mi) NW of The Geysers, CA
map0.22026/05/05 18:40:4038.835N122.802W1.89 7 km ( 4 mi) WNW of Cobb, CA
map1.32026/05/05 17:57:0136.905N121.507W5.85 7 km ( 4 mi) NNE of San Juan Bautista, CA
map2.02026/05/05 17:49:1038.525N116.442W9.75 85 km (53 mi) NE of Tonopah, NV
map0.92026/05/05 17:38:3036.011N117.799W1.50 13 km ( 8 mi) NE of Little Lake, CA
map0.72026/05/05 17:28:3035.718N117.512W6.57 11 km ( 7 mi) WSW of Searles Valley, CA
map0.82026/05/05 17:24:4938.821N122.804W2.86 6 km ( 4 mi) NW of The Geysers, CA
map1.72026/05/05 17:05:2439.338N119.022W7.35 19 km (12 mi) ESE of Silver Springs, NV
map0.62026/05/05 16:48:3337.602N122.465W8.05 2 km ( 1 mi) SE of Pacifica, CA
map1.92026/05/05 16:36:5238.491N116.475W1.93 81 km (50 mi) NE of Tonopah, NV
map2.42026/05/05 16:23:2037.599N122.472W9.21 2 km ( 1 mi) SE of Pacifica, CA
map0.52026/05/05 16:17:0537.603N122.463W7.68 2 km ( 2 mi) ESE of Pacifica, CA
map1.32026/05/05 16:15:1835.042N117.666W-0.55 5 km ( 3 mi) NNW of Boron, CA
map1.02026/05/05 15:55:5834.014N117.181W10.89 5 km ( 3 mi) S of Redlands, CA
map2.02026/05/05 15:49:4138.396N116.496W11.69 74 km (46 mi) ENE of Tonopah, NV
map1.52026/05/05 15:46:1633.167N115.979W6.79 14 km ( 9 mi) E of Ocotillo Wells, CA
map0.32026/05/05 15:41:4238.787N122.772W4.36 2 km ( 1 mi) NW of The Geysers, CA
map1.02026/05/05 15:37:4038.840N122.823W1.75 9 km ( 6 mi) WNW of Cobb, CA
map0.72026/05/05 14:42:4738.807N122.783W3.27 4 km ( 2 mi) NW of The Geysers, CA
map1.52026/05/05 14:30:4132.756N116.903W5.13 3 km ( 2 mi) ENE of Rancho San Diego, CA
map1.52026/05/05 14:28:4935.055N118.349W-0.75 3 km ( 2 mi) WNW of Quarry at MOJAVE (Probable quarry explosion)
map2.42026/05/05 13:58:0438.432N116.510W7.04 75 km (46 mi) ENE of Tonopah, NV
map1.62026/05/05 13:45:2337.398N116.474W9.44 60 km (37 mi) NNE of Beatty, NV
map1.12026/05/05 13:28:2536.011N117.803W1.49 13 km ( 8 mi) NE of Little Lake, CA
map0.32026/05/05 13:27:5635.292N117.757W1.74 14 km ( 9 mi) SW of Johannesburg, CA
map0.82026/05/05 13:23:3936.002N117.805W2.16 12 km ( 7 mi) NE of Little Lake, CA
map0.52026/05/05 13:23:3836.005N117.799W2.08 12 km ( 8 mi) NE of Little Lake, CA
map1.02026/05/05 13:19:4039.103N123.291W5.39 9 km ( 5 mi) SW of Ukiah, CA
map2.92026/05/05 13:14:0236.010N117.802W1.60 12 km ( 8 mi) NE of Little Lake, CA
map2.42026/05/05 13:12:4036.009N117.802W1.62 12 km ( 8 mi) NE of Little Lake, CA
map1.12026/05/05 12:59:0338.836N122.792W2.07 6 km ( 4 mi) WNW of Cobb, CA
map1.92026/05/05 12:39:3540.235N121.112W1.92 13 km ( 8 mi) SE of Chester, CA
map1.32026/05/05 12:30:5633.712N117.343W1.40 5 km ( 3 mi) NNW of Lake Elsinore, CA
map1.02026/05/05 12:04:3233.874N117.502W1.56 2 km ( 1 mi) ESE of Home Gardens, CA
map0.82026/05/05 12:00:4034.004N116.130W8.88 16 km (10 mi) SSW of Twentynine Palms, CA
map1.72026/05/05 11:59:4535.896N115.235W11.79 14 km ( 9 mi) S of Enterprise, NV
map1.02026/05/05 11:57:5438.836N122.790W2.00 6 km ( 4 mi) WNW of Cobb, CA
map1.32026/05/05 11:55:1538.758N122.733W1.78 3 km ( 2 mi) SE of The Geysers, CA
map0.42026/05/05 11:53:0138.799N122.771W4.15 3 km ( 2 mi) NNW of The Geysers, CA
map0.52026/05/05 11:30:4037.602N122.465W8.05 2 km ( 1 mi) ESE of Pacifica, CA
map1.62026/05/05 11:29:0537.602N122.471W9.28 2 km ( 1 mi) SE of Pacifica, CA
map0.92026/05/05 11:08:4433.357N116.383W10.30 11 km ( 7 mi) N of Borrego Springs, CA
map0.52026/05/05 11:03:3734.361N118.305W7.74 11 km ( 7 mi) NNE of Lake View Terrace, CA
map0.72026/05/05 10:24:4638.768N122.732W1.76 2 km ( 1 mi) ESE of The Geysers, CA
map2.02026/05/05 09:55:1838.509N116.423W11.18 86 km (53 mi) NE of Tonopah, NV
map0.92026/05/05 09:46:1233.675N116.945W5.37 8 km ( 5 mi) SSE of Hemet, CA
map1.92026/05/05 09:38:4338.459N116.496W6.59 77 km (48 mi) NE of Tonopah, NV
map-0.22026/05/05 09:34:3033.676N116.958W5.69 8 km ( 5 mi) S of Hemet, CA
map1.62026/05/05 09:30:5038.474N116.505W0.02 78 km (48 mi) NE of Tonopah, NV
map1.52026/05/05 09:14:5535.367N117.780W4.81 13 km ( 8 mi) W of Johannesburg, CA
map1.52026/05/05 09:08:4138.778N122.745W1.14 1 km ( 1 mi) E of The Geysers, CA
map2.62026/05/05 08:22:2638.226N122.170W4.78 3 km ( 2 mi) SSW of Green Valley, CA
map1.22026/05/05 08:15:5438.755N122.718W0.35 4 km ( 3 mi) SE of The Geysers, CA
map1.12026/05/05 08:04:1034.332N117.683W6.82 6 km ( 3 mi) SW of Wrightwood, CA
map2.52026/05/05 07:57:0037.999N122.289W5.85 1 km ( 1 mi) ESE of Pinole, CA
map1.32026/05/05 07:56:2237.769N122.165W6.13 5 km ( 3 mi) N of San Leandro, CA
map1.42026/05/05 07:24:0634.431N117.778W2.44 7 km ( 4 mi) S of Llano, CA
map1.02026/05/05 06:50:3438.787N122.769W3.15 2 km ( 1 mi) NW of The Geysers, CA
map1.52026/05/05 06:29:2333.750N116.936W12.64 3 km ( 2 mi) E of Hemet, CA
map1.62026/05/05 06:16:3838.460N116.472W1.12 79 km (49 mi) NE of Tonopah, NV
map0.82026/05/05 05:59:0338.835N122.798W2.51 7 km ( 4 mi) WNW of Cobb, CA
map1.62026/05/05 05:43:3834.029N117.121W6.27 5 km ( 3 mi) SSE of Mentone, CA
map1.22026/05/05 05:40:4837.364N121.381W2.58 25 km (16 mi) WSW of Patterson, CA
map0.92026/05/05 05:35:0732.849N116.016W8.92 13 km ( 8 mi) N of Ocotillo, CA
map0.82026/05/05 05:25:5138.828N122.857W2.43 10 km ( 6 mi) WNW of The Geysers, CA
map1.32026/05/05 05:04:3838.804N122.767W3.41 3 km ( 2 mi) NNW of The Geysers, CA
map0.32026/05/05 04:59:3238.845N122.820W2.34 9 km ( 5 mi) WNW of Cobb, CA
map1.82026/05/05 04:43:4137.405N114.308W9.56 30 km (18 mi) SE of Caliente, NV
map1.52026/05/05 04:29:5036.239N120.799W6.15 30 km (18 mi) E of King City, CA
map1.62026/05/05 04:29:1338.169N116.596W5.40 57 km (35 mi) E of Tonopah, NV
map1.52026/05/05 04:16:3038.524N116.412W0.86 88 km (54 mi) NE of Tonopah, NV
map2.22026/05/05 04:13:5039.272N119.109W7.65 19 km (12 mi) SSE of Silver Springs, NV
map1.62026/05/05 04:12:1538.467N116.501W7.97 78 km (48 mi) NE of Tonopah, NV
map1.22026/05/05 04:02:3935.262N118.644W8.65 18 km (11 mi) ENE of Arvin, CA
map1.12026/05/05 03:57:4738.822N122.843W1.82 9 km ( 6 mi) NW of The Geysers, CA
map0.62026/05/05 03:55:0337.136N121.519W11.40 10 km ( 6 mi) NE of San Martin, CA
map1.62026/05/05 03:50:4637.521N118.829W2.97 19 km (11 mi) SE of Mammoth Lakes, CA
map1.82026/05/05 03:34:4539.321N119.046W9.01 19 km (12 mi) SE of Silver Springs, NV
map1.72026/05/05 03:07:1938.119N116.559W2.82 59 km (37 mi) E of Tonopah, NV
map1.62026/05/05 03:06:0338.451N116.517W3.19 75 km (47 mi) NE of Tonopah, NV
map1.02026/05/05 03:01:2937.306N121.674W5.20 15 km ( 9 mi) E of Seven Trees, CA
map0.92026/05/05 03:01:0933.169N115.977W6.56 14 km ( 9 mi) S of Salton City, CA
map1.82026/05/05 02:24:1838.272N116.939W3.91 34 km (21 mi) NE of Tonopah, NV
map1.72026/05/05 02:13:3138.479N116.481W6.92 80 km (50 mi) NE of Tonopah, NV
map1.62026/05/05 02:00:5838.463N116.496W1.35 78 km (48 mi) NE of Tonopah, NV
map1.82026/05/05 01:57:3138.495N116.451W5.04 83 km (52 mi) NE of Tonopah, NV
map1.32026/05/05 01:49:2534.416N118.746W7.11 4 km ( 3 mi) E of Piru, CA
map1.92026/05/05 01:46:1738.478N116.454W4.87 82 km (51 mi) NE of Tonopah, NV
map2.42026/05/05 01:39:2036.055N120.091W14.06 7 km ( 4 mi) NNE of Avenal, CA
map1.62026/05/05 01:39:1940.538N123.834W21.55 22 km (14 mi) E of Hydesville, CA
map0.42026/05/05 01:20:2438.832N122.809W2.10 8 km ( 5 mi) W of Cobb, CA
map1.52026/05/05 01:17:0934.020N117.231W17.09 4 km ( 3 mi) SE of Loma Linda, CA
map2.02026/05/05 01:11:2236.046N120.106W12.82 5 km ( 3 mi) NNE of Avenal, CA
map1.72026/05/05 00:59:3638.509N116.468W8.59 83 km (51 mi) NE of Tonopah, NV
map0.92026/05/05 00:49:3134.177N117.620W6.69 7 km ( 4 mi) NNW of Rancho Cucamonga, CA
map1.62026/05/05 00:46:4337.228N114.597W10.67 44 km (27 mi) S of Caliente, NV
map1.52026/05/05 00:44:1838.487N116.481W0.02 80 km (50 mi) NE of Tonopah, NV
map1.02026/05/05 00:35:1638.817N122.765W1.78 4 km ( 2 mi) W of Cobb, CA
map0.72026/05/05 00:26:3438.830N122.819W1.57 8 km ( 5 mi) NW of The Geysers, CA
map1.02026/05/05 00:25:2038.784N122.725W1.56 3 km ( 2 mi) ENE of The Geysers, CA
map0.92026/05/05 00:19:5338.813N122.783W0.47 5 km ( 3 mi) NNW of The Geysers, CA
map1.12026/05/05 00:18:3338.815N122.783W1.37 5 km ( 3 mi) NNW of The Geysers, CA
map0.72026/05/05 00:10:4235.905N117.679W8.36 21 km (13 mi) E of Little Lake, CA
map1.92026/05/04 23:52:0638.464N116.482W1.37 79 km (49 mi) NE of Tonopah, NV
map1.62026/05/04 23:48:0038.836N122.792W2.32 6 km ( 4 mi) WNW of Cobb, CA
map2.32026/05/04 23:41:3838.438N116.514W5.80 75 km (46 mi) ENE of Tonopah, NV
map2.62026/05/04 23:40:4338.555N116.353W0.00 94 km (58 mi) NE of Tonopah, NV
map0.82026/05/04 23:36:5038.824N122.806W2.58 7 km ( 4 mi) NW of The Geysers, CA
map1.52026/05/04 23:34:2538.455N116.509W6.43 76 km (47 mi) NE of Tonopah, NV
map1.02026/05/04 23:28:4038.815N122.799W12.80 6 km ( 4 mi) NW of The Geysers, CA
map2.02026/05/04 23:20:1938.446N116.502W9.44 76 km (47 mi) NE of Tonopah, NV
map0.82026/05/04 23:17:1633.499N116.445W6.30 22 km (14 mi) ESE of Anza, CA
map1.32026/05/04 23:14:2738.835N122.809W1.98 8 km ( 5 mi) W of Cobb, CA
map1.02026/05/04 23:14:1738.822N122.811W2.73 7 km ( 4 mi) NW of The Geysers, CA
map2.32026/05/04 23:12:5538.443N116.510W6.77 75 km (47 mi) NE of Tonopah, NV
map1.22026/05/04 23:12:3037.570N121.604W2.55 19 km (12 mi) SE of Livermore, CA
map1.72026/05/04 23:07:1238.496N116.438W8.25 84 km (52 mi) NE of Tonopah, NV
map1.62026/05/04 22:58:0234.431N117.778W0.96 7 km ( 4 mi) S of Llano, CA
map0.82026/05/04 22:55:1533.704N116.831W14.88 8 km ( 5 mi) SE of Valle Vista, CA
map1.82026/05/04 22:51:5938.495N116.463W6.32 82 km (51 mi) NE of Tonopah, NV
map0.92026/05/04 22:35:3838.848N122.815W1.26 8 km ( 5 mi) WNW of Cobb, CA
map1.12026/05/04 22:22:3933.675N116.790W16.69 10 km ( 6 mi) SW of Idyllwild, CA
map0.72026/05/04 22:19:5038.786N122.768W2.88 1 km ( 1 mi) NW of The Geysers, CA
map1.72026/05/04 22:15:3138.485N116.478W2.06 80 km (50 mi) NE of Tonopah, NV
map1.32026/05/04 22:13:5237.366N121.707W-0.40 10 km ( 6 mi) E of East Foothills, CA
map1.92026/05/04 22:11:5638.469N116.505W0.48 77 km (48 mi) NE of Tonopah, NV
map1.72026/05/04 21:53:4438.543N116.481W8.96 84 km (52 mi) NE of Tonopah, NV
map1.72026/05/04 21:46:0138.487N116.473W6.59 81 km (50 mi) NE of Tonopah, NV
map1.82026/05/04 21:41:3038.441N116.494W0.01 76 km (47 mi) ENE of Tonopah, NV
map1.82026/05/04 21:35:5138.266N116.894W7.26 37 km (23 mi) NE of Tonopah, NV
map1.72026/05/04 21:26:3938.838N122.808W2.16 8 km ( 5 mi) WNW of Cobb, CA
map2.72026/05/04 21:23:2736.589N121.216W7.14 21 km (13 mi) NNE of Soledad, CA
map1.72026/05/04 21:19:4138.491N116.464W0.25 82 km (51 mi) NE of Tonopah, NV
map1.92026/05/04 21:15:1740.321N124.862W8.62 58 km (36 mi) WSW of Ferndale, CA
map2.92026/05/04 21:13:4538.449N116.514W6.07 75 km (47 mi) NE of Tonopah, NV
map0.92026/05/04 21:05:5533.088N116.246W10.76 12 km ( 8 mi) WSW of Ocotillo Wells, CA
map0.62026/05/04 21:03:4038.823N122.843W1.52 9 km ( 6 mi) NW of The Geysers, CA
map2.02026/05/04 21:02:2638.440N116.513W6.29 75 km (47 mi) NE of Tonopah, NV
map1.62026/05/04 20:57:3138.437N116.570W0.06 71 km (44 mi) NE of Tonopah, NV
map2.12026/05/04 20:53:5238.495N116.441W0.02 84 km (52 mi) NE of Tonopah, NV
map2.12026/05/04 20:39:4838.435N116.511W6.08 75 km (47 mi) ENE of Tonopah, NV
map1.62026/05/04 20:26:5438.500N116.482W3.52 81 km (50 mi) NE of Tonopah, NV
map1.82026/05/04 20:17:0538.446N116.520W3.20 75 km (47 mi) NE of Tonopah, NV
map2.22026/05/04 20:16:0034.408N118.911W9.63 1 km ( 1 mi) NNE of Fillmore, CA
map1.82026/05/04 20:10:5438.491N116.487W0.09 80 km (50 mi) NE of Tonopah, NV
map1.22026/05/04 20:10:3335.763N117.649W8.59 16 km (10 mi) N of Ridgecrest, CA
map0.82026/05/04 20:08:4438.813N122.785W13.20 5 km ( 3 mi) NNW of The Geysers, CA
map1.82026/05/04 20:07:2938.502N116.457W4.30 83 km (52 mi) NE of Tonopah, NV
map2.12026/05/04 19:59:2938.467N116.505W2.09 77 km (48 mi) NE of Tonopah, NV
MAP3.42026/05/04 19:50:3838.454N116.507W5.67 76 km (47 mi) NE of Tonopah, NV
map2.92026/05/04 19:49:1138.443N116.506W5.31 76 km (47 mi) NE of Tonopah, NV
map2.82026/05/04 19:47:4238.456N116.523W5.85 75 km (47 mi) NE of Tonopah, NV
map2.92026/05/04 19:43:0938.448N116.523W0.00 75 km (46 mi) NE of Tonopah, NV
MAP4.52026/05/04 19:39:5238.457N116.501W10.00 77 km (48 mi) NE of Tonopah, NV
map1.52026/05/04 19:20:5237.660N122.061W4.80 2 km ( 1 mi) NE of Hayward, CA
map0.92026/05/04 18:52:4736.022N121.056W11.78 22 km (14 mi) SSE of King City, CA
map1.72026/05/04 18:34:4539.341N122.814W7.50 21 km (13 mi) NNE of Upper Lake, CA
map1.02026/05/04 18:24:0938.835N122.801W1.76 7 km ( 4 mi) WNW of Cobb, CA
map0.82026/05/04 18:11:5738.819N122.766W1.77 4 km ( 2 mi) W of Cobb, CA
map0.72026/05/04 17:15:0938.823N122.791W0.88 6 km ( 4 mi) W of Cobb, CA
map1.62026/05/04 17:14:2337.287N116.526W0.01 47 km (29 mi) NNE of Beatty, NV
map1.32026/05/04 17:11:3138.840N122.877W2.20 13 km ( 8 mi) NW of The Geysers, CA
map1.32026/05/04 17:03:3638.841N122.814W1.07 8 km ( 5 mi) WNW of Cobb, CA
map1.42026/05/04 16:16:3235.034N117.678W-0.81 5 km ( 3 mi) NW of Boron, CA
map0.72026/05/04 16:05:5438.821N122.797W2.93 6 km ( 4 mi) NW of The Geysers, CA
map1.92026/05/04 15:27:2937.294N116.497W0.03 48 km (30 mi) NNE of Beatty, NV
map1.42026/05/04 15:24:2736.031N117.770W1.88 16 km (10 mi) E of Coso Junction, CA
map1.52026/05/04 15:24:1736.029N117.772W1.90 16 km (10 mi) NE of Little Lake, CA
map0.72026/05/04 13:52:3134.444N117.931W10.91 7 km ( 4 mi) SSW of Pearblossom, CA
map1.42026/05/04 12:52:2233.858N117.500W1.14 3 km ( 2 mi) SE of Home Gardens, CA
map0.92026/05/04 12:38:2135.629N117.469W6.90 16 km (10 mi) SSW of Searles Valley, CA
map1.72026/05/04 11:59:3134.992N118.193W-0.91 3 km ( 2 mi) SW of Quarry at TPO-DBM (Probable quarry explosion)
map0.72026/05/04 11:59:0838.842N122.877W2.44 13 km ( 8 mi) NW of The Geysers, CA
map0.82026/05/04 11:59:0138.843N122.878W2.58 13 km ( 8 mi) ENE of Cloverdale, CA
map1.92026/05/04 11:08:5640.300N124.358W8.12 31 km (19 mi) SW of Rio Dell, CA
map0.72026/05/04 10:43:0135.899N117.661W4.39 23 km (14 mi) E of Little Lake, CA
map2.02026/05/04 10:40:1837.102N115.289W4.41 31 km (19 mi) SSW of Alamo, NV
map2.62026/05/04 10:25:0536.679N121.332W4.65 15 km ( 9 mi) SSE of Ridgemark, CA
map0.62026/05/04 10:22:4137.479N118.841W3.15 21 km (13 mi) SE of Mammoth Lakes, CA
map0.92026/05/04 10:20:2533.709N116.768W14.41 6 km ( 4 mi) SW of Idyllwild, CA
map0.82026/05/04 10:15:5533.843N116.834W16.64 9 km ( 6 mi) SSW of Cabazon, CA
map1.02026/05/04 09:59:2134.216N117.497W6.23 5 km ( 3 mi) S of Lytle Creek, CA
map1.72026/05/04 09:49:2533.954N116.714W16.06 8 km ( 5 mi) ENE of Cabazon, CA
map0.22026/05/04 09:46:2933.451N116.662W3.37 12 km ( 7 mi) S of Anza, CA
map0.42026/05/04 09:38:2238.807N122.780W1.44 4 km ( 2 mi) NNW of The Geysers, CA
map1.02026/05/04 09:30:2434.018N117.022W17.37 3 km ( 2 mi) SE of Yucaipa, CA
map2.52026/05/04 09:30:0539.269N119.112W7.27 19 km (12 mi) SSE of Silver Springs, NV
map0.22026/05/04 09:03:5536.032N120.616W1.17 22 km (14 mi) NW of Parkfield, CA
map1.62026/05/04 08:46:5539.340N119.014W7.60 20 km (12 mi) ESE of Silver Springs, NV
map0.52026/05/04 08:42:3738.802N122.864W2.30 10 km ( 6 mi) WNW of The Geysers, CA
map1.22026/05/04 08:29:4036.101N120.638W3.95 26 km (16 mi) W of Coalinga, CA
map-0.32026/05/04 08:19:0235.985N120.544W3.50 14 km ( 9 mi) NW of Parkfield, CA
map2.62026/05/04 08:13:4840.903N124.268W18.42 15 km ( 9 mi) WSW of McKinleyville, CA
map1.92026/05/04 08:13:4338.808N122.779W-0.27 4 km ( 2 mi) NNW of The Geysers, CA
map-0.12026/05/04 08:08:1038.758N122.727W1.80 3 km ( 2 mi) SE of The Geysers, CA
map0.72026/05/04 07:54:4833.666N116.768W15.52 9 km ( 6 mi) SSW of Idyllwild, CA
map0.92026/05/04 07:48:4038.822N122.845W2.14 9 km ( 6 mi) WNW of The Geysers, CA
map1.12026/05/04 07:15:4338.807N122.819W2.81 6 km ( 4 mi) WNW of The Geysers, CA
map0.32026/05/04 06:47:5536.673N121.353W1.50 16 km (10 mi) S of Ridgemark, CA
map0.42026/05/04 06:24:0433.461N116.410W8.15 23 km (14 mi) N of Borrego Springs, CA
map0.52026/05/04 05:03:3538.824N122.811W2.62 7 km ( 4 mi) NW of The Geysers, CA
map2.02026/05/04 04:46:0238.781N122.446W8.18 10 km ( 6 mi) ESE of Hidden Valley Lake, CA
map0.72026/05/04 04:14:5135.901N117.670W4.07 22 km (13 mi) E of Little Lake, CA
map2.12026/05/04 03:47:3637.112N115.293W9.92 30 km (19 mi) SSW of Alamo, NV
map1.02026/05/04 03:29:5138.826N122.782W2.31 5 km ( 3 mi) W of Cobb, CA
map0.92026/05/04 03:25:3138.838N122.769W1.93 4 km ( 3 mi) WNW of Cobb, CA
map1.02026/05/04 01:56:4936.023N117.698W2.73 21 km (13 mi) ENE of Little Lake, CA
map2.52026/05/04 01:37:1539.270N119.106W7.42 19 km (12 mi) SSE of Silver Springs, NV
map0.82026/05/04 01:36:2835.813N120.345W5.06 11 km ( 7 mi) NNW of Cholame, CA
map1.22026/05/04 01:35:0038.840N122.829W1.97 9 km ( 6 mi) WNW of Cobb, CA
map1.22026/05/04 01:25:3039.025N123.067W5.56 13 km ( 8 mi) W of Lakeport, CA
map1.32026/05/04 01:18:0434.260N116.447W8.36 16 km (10 mi) N of Yucca Valley, CA
map0.82026/05/04 00:46:1235.887N117.695W4.10 20 km (12 mi) ESE of Little Lake, CA
map1.92026/05/04 00:33:1936.446N117.040W5.47 17 km (10 mi) W of Furnace Creek, CA
map0.52026/05/04 00:23:2337.477N118.838W4.48 22 km (13 mi) SE of Mammoth Lakes, CA
map0.32026/05/04 00:21:0537.478N118.841W3.69 21 km (13 mi) SE of Mammoth Lakes, CA
map1.52026/05/04 00:20:3934.420N118.909W7.31 2 km ( 2 mi) NNE of Fillmore, CA
map1.32026/05/04 00:20:0534.910N119.028W9.68 10 km ( 6 mi) WSW of Grapevine, CA
map0.52026/05/04 00:19:1337.478N118.840W3.99 22 km (13 mi) SE of Mammoth Lakes, CA
map1.12026/05/04 00:15:2438.803N122.769W3.42 3 km ( 2 mi) NNW of The Geysers, CA
map0.42026/05/04 00:10:0838.832N122.816W2.75 8 km ( 5 mi) NW of The Geysers, CA
map0.32026/05/03 23:45:2038.794N122.781W3.79 3 km ( 2 mi) NW of The Geysers, CA
map1.42026/05/03 23:39:1337.479N118.839W3.75 21 km (13 mi) SE of Mammoth Lakes, CA
map0.62026/05/03 23:38:5937.475N118.840W3.52 22 km (14 mi) SE of Mammoth Lakes, CA
map0.82026/05/03 23:35:3938.816N122.764W1.52 4 km ( 2 mi) W of Cobb, CA
map2.42026/05/03 23:32:1737.479N118.841W4.46 21 km (13 mi) SE of Mammoth Lakes, CA
map1.32026/05/03 23:29:3937.481N118.841W4.55 21 km (13 mi) SE of Mammoth Lakes, CA
map0.22026/05/03 23:04:3338.797N122.776W3.35 3 km ( 2 mi) NW of The Geysers, CA
map1.82026/05/03 22:57:1239.269N119.107W7.88 19 km (12 mi) SSE of Silver Springs, NV
map1.12026/05/03 22:49:3838.760N122.729W2.87 3 km ( 2 mi) SE of The Geysers, CA
map1.62026/05/03 22:37:4439.796N123.204W8.69 4 km ( 2 mi) E of Covelo, CA
map1.52026/05/03 22:19:3339.384N119.064W10.41 14 km ( 9 mi) ESE of Silver Springs, NV
map1.02026/05/03 22:19:2938.835N122.798W2.24 7 km ( 4 mi) WNW of Cobb, CA
map0.62026/05/03 21:28:5138.828N122.787W0.56 6 km ( 3 mi) W of Cobb, CA
map0.62026/05/03 21:14:4738.769N122.733W2.14 2 km ( 1 mi) ESE of The Geysers, CA
map0.82026/05/03 20:45:3938.778N122.709W2.17 4 km ( 3 mi) E of The Geysers, CA
map0.32026/05/03 20:44:1133.677N116.727W15.47 7 km ( 4 mi) S of Idyllwild, CA
map0.32026/05/03 20:27:4438.792N122.768W4.13 2 km ( 1 mi) NNW of The Geysers, CA
map1.62026/05/03 20:19:2139.273N119.111W8.10 19 km (12 mi) SSE of Silver Springs, NV
MAP3.62026/05/03 20:12:0439.281N119.100W4.00 18 km (11 mi) SE of Silver Springs, NV
map1.12026/05/03 19:29:3738.801N122.780W3.37 3 km ( 2 mi) NW of The Geysers, CA
map0.22026/05/03 18:48:1138.769N122.734W1.33 2 km ( 1 mi) ESE of The Geysers, CA
map2.02026/05/03 18:22:3036.575N121.171W6.00 22 km (14 mi) NE of Soledad, CA
map0.62026/05/03 18:18:0533.431N116.899W11.54 3 km ( 2 mi) WSW of Aguanga, CA
MAP3.32026/05/03 17:33:5139.338N119.019W7.00 20 km (12 mi) ESE of Silver Springs, NV
map1.62026/05/03 17:24:5837.233N122.162W10.33 12 km ( 8 mi) NNW of Boulder Creek, CA
map1.32026/05/03 17:01:1832.989N115.798W5.04 17 km (11 mi) WSW of Westmorland, CA
map1.02026/05/03 16:54:5238.820N122.793W3.36 6 km ( 4 mi) NNW of The Geysers, CA
map2.52026/05/03 16:42:5032.235N115.267W14.90 9 km ( 6 mi) W of Alberto Oviedo Mota, B.C., MX
map2.22026/05/03 16:37:5132.603N115.300W13.91 7 km ( 4 mi) NE of Puebla, B.C., MX
map1.02026/05/03 16:21:4034.008N117.204W4.88 6 km ( 4 mi) SSW of Redlands, CA
map1.32026/05/03 16:08:5936.166N118.027W3.96 13 km ( 8 mi) S of Olancha, CA
map0.92026/05/03 15:37:1737.231N122.156W10.64 12 km ( 7 mi) NNW of Boulder Creek, CA
map1.32026/05/03 15:16:3036.487N120.929W18.70 34 km (21 mi) ENE of Greenfield, CA
map1.32026/05/03 15:05:3437.232N122.164W10.26 12 km ( 8 mi) NNW of Boulder Creek, CA
map2.22026/05/03 15:00:0539.799N123.202W6.24 4 km ( 2 mi) E of Covelo, CA
map0.92026/05/03 14:57:1638.795N122.810W3.03 5 km ( 3 mi) WNW of The Geysers, CA
map1.32026/05/03 14:56:4136.576N121.169W5.93 22 km (14 mi) NE of Soledad, CA
map1.32026/05/03 14:41:0537.807N122.574W4.77 9 km ( 5 mi) SSW of Tamalpais-Homestead Valley, CA
map0.82026/05/03 14:28:0238.794N122.804W3.27 5 km ( 3 mi) WNW of The Geysers, CA
map0.72026/05/03 14:27:3038.794N122.803W3.31 4 km ( 3 mi) WNW of The Geysers, CA
map0.92026/05/03 14:25:4738.794N122.804W3.38 5 km ( 3 mi) WNW of The Geysers, CA
map1.82026/05/03 14:04:1140.522N124.416W19.13 14 km ( 9 mi) WSW of Ferndale, CA
map1.62026/05/03 13:46:5832.991N115.800W4.93 17 km (11 mi) WSW of Westmorland, CA
map1.62026/05/03 13:19:1537.028N115.127W11.30 38 km (23 mi) S of Alamo, NV
map0.42026/05/03 13:10:3138.791N122.770W3.76 2 km ( 1 mi) NW of The Geysers, CA
map1.12026/05/03 13:09:2336.974N121.449W8.51 11 km ( 7 mi) ESE of Gilroy, CA
map2.62026/05/03 13:05:1139.057N119.011W9.71 15 km (10 mi) ENE of Yerington, NV
map1.02026/05/03 12:31:0938.835N122.785W1.78 6 km ( 3 mi) WNW of Cobb, CA
map0.82026/05/03 12:26:1034.008N117.000W16.65 5 km ( 3 mi) SE of Yucaipa, CA
map1.02026/05/03 11:58:3533.665N116.766W14.89 9 km ( 6 mi) SSW of Idyllwild, CA
map0.92026/05/03 11:58:1633.663N116.773W16.64 10 km ( 6 mi) SSW of Idyllwild, CA
map1.52026/05/03 11:45:0633.807N116.976W13.73 3 km ( 2 mi) NNW of San Jacinto, CA
map1.92026/05/03 11:40:4539.271N119.106W7.47 19 km (12 mi) SSE of Silver Springs, NV
map2.82026/05/03 11:32:2139.306N119.069W7.59 18 km (11 mi) SE of Silver Springs, NV
map0.42026/05/03 11:12:4038.835N122.799W2.10 7 km ( 4 mi) WNW of Cobb, CA
map2.22026/05/03 10:52:0738.171N117.835W9.51 54 km (34 mi) WNW of Tonopah, NV
map1.52026/05/03 10:35:2939.275N119.111W7.99 18 km (11 mi) SSE of Silver Springs, NV
map1.62026/05/03 10:32:3939.318N119.058W9.58 18 km (11 mi) SE of Silver Springs, NV
map1.82026/05/03 10:31:2239.265N119.125W9.74 19 km (12 mi) SSE of Silver Springs, NV
map1.62026/05/03 10:29:5039.268N119.111W7.65 19 km (12 mi) SSE of Silver Springs, NV
MAP3.12026/05/03 10:29:1934.921N119.019W8.32 9 km ( 5 mi) WSW of Grapevine, CA
map1.22026/05/03 10:13:1134.909N119.612W9.04 25 km (16 mi) SW of Maricopa, CA
map1.32026/05/03 10:00:1938.823N122.800W3.04 6 km ( 4 mi) NW of The Geysers, CA
map0.42026/05/03 09:54:4038.833N122.817W2.37 8 km ( 5 mi) NW of The Geysers, CA
map1.62026/05/03 09:43:4539.305N119.075W3.17 18 km (11 mi) SE of Silver Springs, NV
map2.02026/05/03 09:15:0034.245N117.481W6.91 2 km ( 1 mi) SE of Lytle Creek, CA
map0.52026/05/03 08:36:0138.835N122.786W2.78 6 km ( 3 mi) WNW of Cobb, CA
map0.92026/05/03 08:29:4133.147N116.540W6.78 10 km ( 6 mi) NE of Julian, CA
map1.72026/05/03 08:25:3237.139N115.352W6.07 30 km (19 mi) SSW of Alamo, NV
map0.72026/05/03 08:14:0438.844N122.880W2.64 13 km ( 8 mi) ENE of Cloverdale, CA
map1.02026/05/03 07:56:4634.245N117.477W7.30 3 km ( 2 mi) SE of Lytle Creek, CA
map0.42026/05/03 07:44:1533.702N116.822W13.69 8 km ( 5 mi) SE of Valle Vista, CA
map0.52026/05/03 07:40:4435.683N117.509W2.95 13 km ( 8 mi) SW of Searles Valley, CA
map0.92026/05/03 07:26:1338.800N122.795W3.36 4 km ( 3 mi) NW of The Geysers, CA
map0.72026/05/03 07:01:2537.481N118.841W3.62 21 km (13 mi) SE of Mammoth Lakes, CA
map-0.42026/05/03 06:51:3638.834N122.810W0.66 8 km ( 5 mi) W of Cobb, CA
map0.22026/05/03 06:48:5238.796N122.781W3.58 3 km ( 2 mi) NW of The Geysers, CA
map0.82026/05/03 06:34:3934.011N117.202W6.10 5 km ( 3 mi) SSW of Redlands, CA
map1.12026/05/03 06:33:5138.822N122.802W2.52 6 km ( 4 mi) NW of The Geysers, CA
map0.82026/05/03 06:24:1134.008N117.207W5.22 6 km ( 4 mi) SSW of Redlands, CA
MAP3.32026/05/03 05:52:4739.798N123.199W6.16 4 km ( 3 mi) E of Covelo, CA
map1.32026/05/03 05:46:0938.827N122.731W1.00 1 km ( 1 mi) NW of Cobb, CA
map0.22026/05/03 05:44:3238.832N122.790W2.68 6 km ( 4 mi) W of Cobb, CA
MAP3.82026/05/03 05:10:4931.611N115.628W2.08 81 km (50 mi) SSW of Alberto Oviedo Mota, B.C., MX
map1.62026/05/03 05:10:2839.312N122.853W5.62 17 km (11 mi) NNE of Upper Lake, CA
map0.52026/05/03 05:06:2134.010N117.208W4.19 6 km ( 3 mi) SSW of Redlands, CA
map0.72026/05/03 05:04:1638.845N122.815W1.65 8 km ( 5 mi) WNW of Cobb, CA
map1.32026/05/03 04:55:4236.676N121.300W2.50 16 km (10 mi) SSE of Ridgemark, CA
map1.62026/05/03 04:42:0532.608N115.302W14.71 7 km ( 4 mi) NE of Puebla, B.C., MX
map0.62026/05/03 04:36:5435.900N117.656W4.52 23 km (14 mi) E of Little Lake, CA
map0.82026/05/03 04:32:3838.760N122.727W1.91 3 km ( 2 mi) SE of The Geysers, CA
map1.12026/05/03 04:31:1534.041N117.519W15.70 5 km ( 3 mi) NW of Glen Avon, CA
map1.62026/05/03 04:00:5738.826N122.802W1.87 7 km ( 4 mi) NW of The Geysers, CA
map0.82026/05/03 03:58:0938.827N122.803W1.82 7 km ( 4 mi) NW of The Geysers, CA
map0.52026/05/03 03:39:0633.538N116.419W6.62 17 km (11 mi) SW of La Quinta, CA
map0.72026/05/03 03:37:4133.699N116.729W18.40 5 km ( 3 mi) SSW of Idyllwild, CA
map1.12026/05/03 03:35:2638.760N122.728W2.10 3 km ( 2 mi) SE of The Geysers, CA
map1.22026/05/03 03:34:2938.759N122.729W1.65 3 km ( 2 mi) SE of The Geysers, CA
map1.62026/05/03 03:31:1839.316N122.855W6.63 17 km (11 mi) NNE of Upper Lake, CA
map1.12026/05/03 03:18:1538.756N122.715W1.71 4 km ( 3 mi) SE of The Geysers, CA
map1.22026/05/03 03:14:5837.815N122.000W7.94 1 km ( 0 mi) S of Danville, CA
map1.32026/05/03 02:51:0536.331N120.634W13.27 33 km (20 mi) NW of Coalinga, CA
map0.32026/05/03 02:21:0533.158N116.518W5.01 12 km ( 7 mi) NE of Julian, CA
map0.42026/05/03 01:40:4638.795N122.778W3.60 3 km ( 2 mi) NW of The Geysers, CA
map0.82026/05/03 01:38:1738.796N122.781W3.47 3 km ( 2 mi) NW of The Geysers, CA
map0.72026/05/03 01:27:3838.840N122.792W-0.82 6 km ( 4 mi) WNW of Cobb, CA
map1.02026/05/03 01:17:5233.718N116.844W16.16 6 km ( 3 mi) SE of Valle Vista, CA
map0.72026/05/03 01:16:5838.794N122.780W3.33 3 km ( 2 mi) NW of The Geysers, CA
map0.82026/05/03 01:14:4438.796N122.782W3.74 3 km ( 2 mi) NW of The Geysers, CA
map2.22026/05/03 01:13:5838.791N122.779W3.34 2 km ( 2 mi) NW of The Geysers, CA
map0.82026/05/03 01:12:5838.835N122.816W2.04 8 km ( 5 mi) W of Cobb, CA
map0.72026/05/03 01:10:5538.837N122.808W2.29 8 km ( 5 mi) WNW of Cobb, CA
map0.92026/05/03 01:04:3436.092N117.882W2.23 8 km ( 5 mi) NE of Coso Junction, CA
map0.72026/05/03 00:56:4738.836N122.807W1.97 7 km ( 5 mi) WNW of Cobb, CA
map0.22026/05/03 00:47:3938.839N122.826W0.05 9 km ( 6 mi) WNW of Cobb, CA
map0.72026/05/03 00:46:3638.799N122.785W3.41 3 km ( 2 mi) NW of The Geysers, CA
map1.22026/05/03 00:43:4035.900N117.702W7.48 19 km (12 mi) ESE of Little Lake, CA
map0.32026/05/03 00:38:0138.797N122.753W2.49 2 km ( 1 mi) N of The Geysers, CA
map1.12026/05/03 00:35:2835.727N118.051W6.15 23 km (14 mi) WNW of Inyokern, CA
map0.52026/05/03 00:31:4834.015N117.215W5.67 5 km ( 3 mi) SW of Redlands, CA
map0.72026/05/03 00:23:1033.901N116.828W16.88 4 km ( 3 mi) WSW of Cabazon, CA
map0.32026/05/03 00:22:0138.800N122.786W3.59 4 km ( 2 mi) NW of The Geysers, CA
map1.62026/05/03 00:08:3337.136N114.056W1.32 37 km (23 mi) N of Mesquite, NV
map0.72026/05/03 00:08:1138.811N122.796W3.54 5 km ( 3 mi) NW of The Geysers, CA
map1.62026/05/03 00:06:4335.903N117.701W7.35 19 km (12 mi) ESE of Little Lake, CA
map1.12026/05/02 23:52:0538.835N122.807W2.21 7 km ( 5 mi) WNW of Cobb, CA
map1.32026/05/02 23:44:3838.810N122.796W3.38 5 km ( 3 mi) NW of The Geysers, CA
map0.72026/05/02 23:40:2133.945N117.204W13.02 3 km ( 2 mi) NE of Moreno Valley, CA
map1.12026/05/02 23:36:5538.796N122.807W3.19 5 km ( 3 mi) WNW of The Geysers, CA
map0.62026/05/02 23:18:5533.665N116.717W14.61 8 km ( 5 mi) S of Idyllwild, CA
map1.52026/05/02 23:11:1338.790N122.769W1.11 2 km ( 1 mi) NW of The Geysers, CA
map1.02026/05/02 23:03:3936.022N117.698W2.57 21 km (13 mi) ENE of Little Lake, CA
map-0.32026/05/02 23:02:4434.437N117.929W7.84 8 km ( 5 mi) SSW of Pearblossom, CA
map1.62026/05/02 22:43:3039.311N119.078W0.04 17 km (11 mi) SE of Silver Springs, NV
map1.12026/05/02 22:34:5938.795N122.807W3.20 5 km ( 3 mi) WNW of The Geysers, CA
map2.52026/05/02 22:34:3839.331N119.038W9.84 19 km (12 mi) ESE of Silver Springs, NV
map2.62026/05/02 22:30:3439.321N119.051W7.33 18 km (11 mi) SE of Silver Springs, NV
map0.12026/05/02 22:26:5235.769N117.584W7.13 16 km (10 mi) W of Searles Valley, CA
map0.72026/05/02 22:16:3033.983N116.951W4.69 6 km ( 4 mi) NNE of Beaumont, CA
map0.52026/05/02 22:08:0538.835N122.790W1.74 6 km ( 4 mi) WNW of Cobb, CA
map0.22026/05/02 22:02:3438.836N122.790W2.15 6 km ( 4 mi) WNW of Cobb, CA
map0.62026/05/02 21:50:0433.443N116.397W3.48 21 km (13 mi) N of Borrego Springs, CA
map0.82026/05/02 21:46:5238.824N122.843W2.41 9 km ( 6 mi) NW of The Geysers, CA
map1.22026/05/02 21:17:5235.078N119.150W13.09 23 km (14 mi) E of Maricopa, CA
map1.32026/05/02 21:10:1538.822N122.812W2.97 7 km ( 4 mi) NW of The Geysers, CA
map0.42026/05/02 21:09:2137.483N118.848W2.56 21 km (13 mi) SE of Mammoth Lakes, CA
map0.82026/05/02 21:07:1537.477N118.841W3.98 22 km (13 mi) SE of Mammoth Lakes, CA
map0.22026/05/02 20:57:4538.788N122.772W3.83 2 km ( 1 mi) NW of The Geysers, CA
map1.12026/05/02 20:49:3438.841N122.855W2.24 11 km ( 7 mi) NW of The Geysers, CA
map0.52026/05/02 20:38:4738.837N122.835W1.30 9 km ( 6 mi) NW of The Geysers, CA
map0.12026/05/02 20:05:4233.542N116.710W5.90 4 km ( 2 mi) WSW of Anza, CA
map1.12026/05/02 20:03:4436.643N120.946W2.06 42 km (26 mi) NE of Soledad, CA
map1.72026/05/02 20:03:1239.312N119.069W10.76 18 km (11 mi) SE of Silver Springs, NV
map1.72026/05/02 19:59:5238.777N122.745W1.39 1 km ( 1 mi) E of The Geysers, CA
map0.32026/05/02 19:53:5438.771N122.726W1.51 3 km ( 2 mi) ESE of The Geysers, CA
map0.82026/05/02 19:41:1136.089N117.866W4.08 9 km ( 6 mi) ENE of Coso Junction, CA
map1.32026/05/02 19:39:4938.773N122.719W1.96 3 km ( 2 mi) E of The Geysers, CA
map0.42026/05/02 19:35:4138.775N122.716W1.47 4 km ( 2 mi) E of The Geysers, CA
map2.42026/05/02 19:35:1537.111N115.314W10.96 31 km (19 mi) SSW of Alamo, NV
map0.62026/05/02 19:09:0035.994N120.554W3.61 15 km (10 mi) NW of Parkfield, CA
map0.62026/05/02 19:00:3933.660N117.010W13.43 9 km ( 5 mi) SE of Winchester, CA
map1.02026/05/02 18:45:1338.825N122.809W1.56 7 km ( 4 mi) NW of The Geysers, CA
map1.32026/05/02 18:30:1137.599N122.464W8.30 3 km ( 2 mi) SE of Pacifica, CA
map1.72026/05/02 18:17:1232.828N115.618W11.76 5 km ( 3 mi) WSW of Imperial, CA
map1.32026/05/02 17:49:5632.826N115.619W11.55 5 km ( 3 mi) WSW of Imperial, CA
map2.02026/05/02 17:49:5438.441N116.508W9.81 75 km (47 mi) ENE of Tonopah, NV
map1.12026/05/02 17:41:4138.829N122.818W1.80 8 km ( 5 mi) NW of The Geysers, CA
MAP3.12026/05/02 17:37:4339.796N123.200W6.16 4 km ( 3 mi) E of Covelo, CA
map0.82026/05/02 17:19:3538.835N122.784W2.55 5 km ( 3 mi) WNW of Cobb, CA
map2.52026/05/02 17:06:4839.794N123.199W7.55 4 km ( 3 mi) E of Covelo, CA
map1.82026/05/02 16:51:3439.318N119.076W8.85 17 km (10 mi) SE of Silver Springs, NV
map1.02026/05/02 16:42:3937.578N121.598W4.61 19 km (12 mi) SE of Livermore, CA
map2.52026/05/02 16:27:4237.574N121.591W2.98 20 km (12 mi) SE of Livermore, CA
map0.82026/05/02 16:26:1638.826N122.766W1.93 4 km ( 2 mi) W of Cobb, CA
map0.82026/05/02 16:16:4538.763N122.423W7.35 13 km ( 8 mi) ESE of Hidden Valley Lake, CA
map1.62026/05/02 16:14:0939.312N119.076W1.65 17 km (11 mi) SE of Silver Springs, NV
map0.82026/05/02 16:02:3838.790N122.767W2.73 2 km ( 1 mi) NW of The Geysers, CA
map1.12026/05/02 15:46:2537.862N122.006W7.14 3 km ( 2 mi) ENE of Alamo, CA
map1.92026/05/02 15:38:0638.824N122.767W1.94 4 km ( 2 mi) W of Cobb, CA
map1.12026/05/02 15:36:4334.008N117.205W3.57 6 km ( 4 mi) SSW of Redlands, CA
map0.52026/05/02 15:12:0038.834N122.813W1.63 8 km ( 5 mi) W of Cobb, CA
map0.22026/05/02 15:08:2835.692N117.509W4.44 13 km ( 8 mi) SW of Searles Valley, CA
map0.72026/05/02 15:07:5635.694N117.506W4.37 12 km ( 8 mi) SW of Searles Valley, CA
map0.22026/05/02 15:04:2938.791N122.769W1.90 2 km ( 1 mi) NW of The Geysers, CA
map0.82026/05/02 14:53:0234.247N117.478W7.52 2 km ( 1 mi) SE of Lytle Creek, CA
map0.32026/05/02 14:51:1738.797N122.779W3.39 3 km ( 2 mi) NW of The Geysers, CA
map2.52026/05/02 14:50:4834.405N118.909W9.87 1 km ( 1 mi) NE of Fillmore, CA
map0.52026/05/02 14:41:5033.517N116.892W11.92 9 km ( 5 mi) NNW of Aguanga, CA
map1.02026/05/02 14:38:0038.798N122.750W1.64 2 km ( 1 mi) NNE of The Geysers, CA
map1.22026/05/02 14:28:0933.714N116.844W16.13 6 km ( 4 mi) SE of Valle Vista, CA
map2.42026/05/02 14:26:1734.246N117.482W6.73 2 km ( 1 mi) SE of Lytle Creek, CA
map1.82026/05/02 14:24:1239.698N122.855W-0.03 35 km (22 mi) ESE of Covelo, CA
map0.82026/05/02 14:19:3438.820N122.844W2.10 9 km ( 6 mi) WNW of The Geysers, CA
map0.92026/05/02 14:05:3534.008N117.207W4.47 6 km ( 4 mi) SSW of Redlands, CA
map0.42026/05/02 13:54:3638.801N122.783W3.98 3 km ( 2 mi) NW of The Geysers, CA
map2.82026/05/02 13:32:2036.647N121.296W6.68 19 km (12 mi) SSE of Ridgemark, CA
map2.12026/05/02 13:16:3738.793N122.779W2.66 3 km ( 2 mi) NW of The Geysers, CA
map0.22026/05/02 13:06:1138.797N122.751W2.07 2 km ( 1 mi) NNE of The Geysers, CA
map1.72026/05/02 13:04:3437.653N119.369W1.56 21 km (13 mi) ESE of Yosemite Valley, CA
map0.42026/05/02 13:04:1738.835N122.817W2.45 8 km ( 5 mi) W of Cobb, CA
map1.42026/05/02 12:53:4737.659N119.373W4.06 20 km (13 mi) ESE of Yosemite Valley, CA
map0.82026/05/02 12:47:5134.004N117.217W4.71 6 km ( 4 mi) SE of Loma Linda, CA
map0.62026/05/02 12:42:1038.763N122.697W2.18 5 km ( 3 mi) ESE of The Geysers, CA
map0.92026/05/02 12:35:0734.033N117.128W7.01 4 km ( 3 mi) S of Mentone, CA
map0.92026/05/02 12:16:4633.718N116.842W16.09 6 km ( 4 mi) SE of Valle Vista, CA
map1.52026/05/02 12:12:5739.326N119.045W9.32 18 km (11 mi) ESE of Silver Springs, NV
map1.02026/05/02 12:05:1138.830N122.816W1.61 8 km ( 5 mi) NW of The Geysers, CA
map2.62026/05/02 12:01:0834.406N118.913W10.44 1 km ( 1 mi) NNE of Fillmore, CA
map0.72026/05/02 11:22:4936.566N121.123W-0.01 24 km (15 mi) NE of Soledad, CA
map1.02026/05/02 11:14:1533.471N116.590W9.04 12 km ( 8 mi) SE of Anza, CA
map1.12026/05/02 11:00:5338.815N122.786W1.79 5 km ( 3 mi) NNW of The Geysers, CA
map0.92026/05/02 10:46:0334.022N117.590W5.75 5 km ( 3 mi) SE of Ontario, CA
map0.72026/05/02 10:39:3933.245N115.566W10.80 4 km ( 3 mi) W of Niland, CA
map1.12026/05/02 10:33:3338.817N122.797W2.35 6 km ( 3 mi) NW of The Geysers, CA
map0.72026/05/02 10:24:0838.823N122.853W2.22 10 km ( 6 mi) WNW of The Geysers, CA
map0.62026/05/02 10:17:4533.541N116.713W4.55 4 km ( 2 mi) WSW of Anza, CA
map1.92026/05/02 10:16:5539.705N122.853W-0.65 35 km (22 mi) ESE of Covelo, CA
map0.72026/05/02 10:16:2133.377N116.842W10.80 3 km ( 2 mi) NE of Palomar Observatory, CA
map2.62026/05/02 09:44:2936.652N121.294W7.23 19 km (12 mi) SSE of Ridgemark, CA
map-0.42026/05/02 09:31:0938.788N122.766W1.39 2 km ( 1 mi) NW of The Geysers, CA
map1.02026/05/02 09:22:3333.954N116.375W6.19 12 km ( 7 mi) E of Desert Hot Springs, CA
map0.92026/05/02 09:18:5435.878N117.719W2.70 18 km (11 mi) ESE of Little Lake, CA
map0.42026/05/02 09:08:3734.446N117.935W9.57 7 km ( 4 mi) SSW of Pearblossom, CA
map1.22026/05/02 09:00:3034.898N119.608W12.48 26 km (16 mi) SW of Maricopa, CA
map0.62026/05/02 08:37:4634.036N117.518W10.90 4 km ( 3 mi) NW of Glen Avon, CA
map1.92026/05/02 08:09:0839.326N119.028W6.95 20 km (12 mi) ESE of Silver Springs, NV
map1.32026/05/02 08:06:3738.831N122.816W1.73 8 km ( 5 mi) NW of The Geysers, CA
map0.32026/05/02 07:55:1438.770N122.727W1.05 3 km ( 2 mi) ESE of The Geysers, CA
map0.72026/05/02 07:54:2934.490N118.030W9.95 6 km ( 3 mi) SW of Littlerock, CA
map1.12026/05/02 07:47:2334.005N116.770W13.47 10 km ( 6 mi) N of Cabazon, CA
map0.52026/05/02 07:42:5538.838N122.840W1.88 10 km ( 6 mi) NW of The Geysers, CA
map1.32026/05/02 07:22:2538.775N122.739W0.72 2 km ( 1 mi) E of The Geysers, CA
map1.62026/05/02 07:11:5939.300N119.078W5.10 18 km (11 mi) SE of Silver Springs, NV
MAP3.42026/05/02 07:09:3539.278N119.100W5.00 19 km (12 mi) SE of Silver Springs, NV
map2.12026/05/02 07:02:5238.382N122.416W10.10 5 km ( 3 mi) WSW of Yountville, CA
map0.82026/05/02 06:40:0138.819N122.825W2.03 8 km ( 5 mi) NW of The Geysers, CA
map0.72026/05/02 06:07:4938.772N122.727W3.81 3 km ( 2 mi) ESE of The Geysers, CA
map1.32026/05/02 06:07:3638.774N122.739W0.91 2 km ( 1 mi) ESE of The Geysers, CA
map0.92026/05/02 05:33:4833.699N116.821W14.21 9 km ( 5 mi) SE of Valle Vista, CA
map1.72026/05/02 05:32:5739.321N119.030W7.49 20 km (12 mi) ESE of Silver Springs, NV
map1.62026/05/02 05:32:0733.063N116.421W5.33 17 km (11 mi) E of Julian, CA
map1.62026/05/02 05:28:3239.326N119.058W0.48 17 km (11 mi) SE of Silver Springs, NV
map0.62026/05/02 05:06:4033.146N116.534W8.75 10 km ( 6 mi) NE of Julian, CA
map0.52026/05/02 04:46:0235.718N117.564W4.96 15 km ( 9 mi) NE of Ridgecrest, CA
map1.12026/05/02 04:42:0235.696N121.038W10.01 15 km ( 9 mi) WSW of Lake Nacimiento, CA
map1.02026/05/02 04:34:1738.823N122.852W2.41 10 km ( 6 mi) WNW of The Geysers, CA
map1.62026/05/02 04:31:2032.910N115.885W7.74 22 km (14 mi) NNE of Ocotillo, CA
map0.92026/05/02 04:30:5432.906N115.872W8.22 22 km (14 mi) NNE of Ocotillo, CA
map1.12026/05/02 04:14:3832.907N115.884W7.81 22 km (13 mi) NNE of Ocotillo, CA
map0.32026/05/02 04:14:2138.760N122.728W1.53 3 km ( 2 mi) SE of The Geysers, CA
map0.92026/05/02 04:06:3934.904N119.610W9.88 26 km (16 mi) SW of Maricopa, CA
map1.22026/05/02 03:50:4938.758N122.734W2.56 3 km ( 2 mi) SE of The Geysers, CA
map0.42026/05/02 03:49:5934.169N116.805W1.62 11 km ( 7 mi) SSE of Big Bear City, CA
map1.02026/05/02 03:25:0033.987N117.425W18.67 2 km ( 1 mi) WSW of Rubidoux, CA
map2.62026/05/02 03:10:4634.023N117.594W4.43 5 km ( 3 mi) SE of Ontario, CA
map1.12026/05/02 02:56:0133.940N116.891W4.46 2 km ( 1 mi) NW of Banning, CA
map1.42026/05/02 02:46:1038.786N122.769W2.97 1 km ( 1 mi) NW of The Geysers, CA
map0.42026/05/02 02:45:1438.763N122.725W1.67 3 km ( 2 mi) ESE of The Geysers, CA
map1.42026/05/02 02:44:1238.747N122.707W1.85 5 km ( 3 mi) SE of The Geysers, CA
map1.02026/05/02 02:41:0638.795N122.754W0.78 2 km ( 1 mi) N of The Geysers, CA
map1.62026/05/02 02:40:5239.330N119.043W9.90 18 km (11 mi) ESE of Silver Springs, NV
map0.92026/05/02 02:29:3732.905N115.881W8.32 22 km (13 mi) NNE of Ocotillo, CA
map1.22026/05/02 02:24:1232.904N115.878W8.76 22 km (13 mi) NNE of Ocotillo, CA
map0.32026/05/02 01:40:5838.828N122.815W2.16 8 km ( 5 mi) NW of The Geysers, CA
map1.12026/05/02 01:16:5138.819N122.764W2.15 4 km ( 2 mi) W of Cobb, CA
map1.12026/05/02 01:01:1138.814N122.814W2.68 6 km ( 4 mi) NW of The Geysers, CA
map1.32026/05/02 00:54:5837.946N122.069W10.35 1 km ( 0 mi) WSW of Pleasant Hill, CA
map1.42026/05/02 00:50:5233.961N116.445W2.07 5 km ( 3 mi) E of Desert Hot Springs, CA
map1.22026/05/02 00:44:0832.909N115.878W9.38 22 km (14 mi) NNE of Ocotillo, CA
map1.12026/05/02 00:43:3438.816N122.812W2.99 6 km ( 4 mi) NW of The Geysers, CA
map0.82026/05/02 00:37:4235.333N117.814W7.03 17 km (10 mi) WSW of Johannesburg, CA
map0.72026/05/02 00:34:0438.837N122.780W1.84 5 km ( 3 mi) WNW of Cobb, CA
map1.02026/05/02 00:29:3532.908N115.881W7.68 22 km (14 mi) NNE of Ocotillo, CA
map1.82026/05/02 00:20:5738.836N122.782W1.60 5 km ( 3 mi) WNW of Cobb, CA
map0.72026/05/02 00:04:2538.835N122.818W1.98 8 km ( 5 mi) NW of The Geysers, CA
map0.82026/05/01 23:58:5434.003N117.212W3.65 6 km ( 4 mi) SSW of Redlands, CA
map2.02026/05/01 23:48:4334.001N117.214W3.33 7 km ( 4 mi) SSW of Redlands, CA
map1.02026/05/01 23:48:0434.002N117.215W3.78 7 km ( 4 mi) SSW of Redlands, CA
map1.02026/05/01 23:27:4635.703N121.036W10.02 14 km ( 9 mi) W of Lake Nacimiento, CA
map1.12026/05/01 23:21:2038.791N122.768W1.69 2 km ( 1 mi) NW of The Geysers, CA
map0.52026/05/01 23:16:0733.148N116.520W8.48 11 km ( 7 mi) NE of Julian, CA
map0.92026/05/01 23:12:5338.837N122.838W1.21 10 km ( 6 mi) NW of The Geysers, CA
map1.12026/05/01 23:00:2534.150N116.672W9.33 14 km ( 9 mi) NW of Morongo Valley, CA
map1.12026/05/01 22:53:3838.789N122.763W1.27 1 km ( 1 mi) NNW of The Geysers, CA
map0.32026/05/01 22:49:5838.812N122.820W3.90 7 km ( 4 mi) NW of The Geysers, CA
map0.82026/05/01 22:46:2238.793N122.753W2.03 2 km ( 1 mi) N of The Geysers, CA
map0.42026/05/01 22:33:0438.836N122.800W2.86 7 km ( 4 mi) WNW of Cobb, CA
map1.82026/05/01 22:32:3239.314N119.061W8.41 18 km (11 mi) SE of Silver Springs, NV
map0.42026/05/01 22:02:1238.828N122.800W2.41 7 km ( 4 mi) W of Cobb, CA
map1.62026/05/01 21:57:2933.164N115.980W6.80 14 km ( 9 mi) E of Ocotillo Wells, CA
map0.52026/05/01 21:50:5135.885N117.677W4.64 21 km (13 mi) ESE of Little Lake, CA
map0.32026/05/01 21:44:0338.810N122.791W3.50 5 km ( 3 mi) NW of The Geysers, CA
map1.52026/05/01 21:31:2439.306N119.074W8.95 18 km (11 mi) SE of Silver Springs, NV
map1.62026/05/01 21:28:1238.771N122.726W0.37 3 km ( 2 mi) ESE of The Geysers, CA
map0.82026/05/01 21:12:2238.804N122.781W3.41 4 km ( 2 mi) NW of The Geysers, CA
map0.52026/05/01 21:09:2737.678N118.909W2.16 8 km ( 5 mi) NE of Mammoth Lakes, CA
map0.42026/05/01 20:37:2638.837N122.784W1.64 6 km ( 3 mi) WNW of Cobb, CA
map0.22026/05/01 20:10:1333.534N116.718W5.05 5 km ( 3 mi) WSW of Anza, CA
map1.92026/05/01 20:00:0139.310N119.074W9.85 18 km (11 mi) SE of Silver Springs, NV
map1.92026/05/01 19:54:1539.311N119.077W9.71 17 km (11 mi) SE of Silver Springs, NV
MAP3.02026/05/01 19:49:2839.312N119.071W10.33 18 km (11 mi) SE of Silver Springs, NV
map2.02026/05/01 19:47:1339.307N119.076W8.05 18 km (11 mi) SE of Silver Springs, NV
map1.12026/05/01 19:38:4638.786N122.769W3.03 1 km ( 1 mi) NW of The Geysers, CA
map2.22026/05/01 19:31:0339.388N118.932W8.14 16 km (10 mi) SW of Fallon, NV
map0.82026/05/01 18:57:1534.155N117.413W7.42 6 km ( 4 mi) W of Muscoy, CA
map1.22026/05/01 18:53:5034.020N116.623W11.32 5 km ( 3 mi) SW of Morongo Valley, CA
map0.32026/05/01 18:40:0838.782N122.756W1.45 1 km ( 0 mi) N of The Geysers, CA
map0.22026/05/01 17:46:2938.834N122.720W9.55 1 km ( 1 mi) NNE of Cobb, CA
map0.92026/05/01 17:36:3833.707N116.819W15.36 8 km ( 5 mi) SE of Valle Vista, CA
map0.62026/05/01 17:26:5138.837N122.797W1.77 7 km ( 4 mi) WNW of Cobb, CA
map0.72026/05/01 17:20:0138.802N122.772W1.28 3 km ( 2 mi) NNW of The Geysers, CA
map1.02026/05/01 17:19:0338.791N122.760W1.27 2 km ( 1 mi) NNW of The Geysers, CA
MAP3.02026/05/01 17:04:5839.309N119.069W9.44 18 km (11 mi) SE of Silver Springs, NV
map1.52026/05/01 16:33:5536.209N120.019W7.69 8 km ( 5 mi) E of Huron, CA
map2.62026/05/01 16:31:4640.202N123.120W39.43 40 km (25 mi) S of Hayfork, CA
map1.12026/05/01 15:47:4834.047N117.237W13.60 2 km ( 1 mi) E of Loma Linda, CA
map1.92026/05/01 15:26:4638.458N116.507W6.61 77 km (48 mi) NE of Tonopah, NV
map1.12026/05/01 15:15:2838.837N122.785W1.99 6 km ( 3 mi) WNW of Cobb, CA
map1.52026/05/01 15:00:5939.293N119.077W8.80 19 km (12 mi) SE of Silver Springs, NV
map0.72026/05/01 14:50:4733.339N116.389W6.70 9 km ( 6 mi) N of Borrego Springs, CA
map0.32026/05/01 14:44:4438.807N122.821W3.03 7 km ( 4 mi) WNW of The Geysers, CA
map1.52026/05/01 14:39:0039.313N119.068W6.91 18 km (11 mi) SE of Silver Springs, NV
map0.62026/05/01 14:32:0337.597N122.457W8.38 3 km ( 2 mi) SE of Pacifica, CA
map2.12026/05/01 14:26:2739.340N119.023W7.68 19 km (12 mi) ESE of Silver Springs, NV
map0.82026/05/01 14:22:2938.789N122.767W3.16 2 km ( 1 mi) NW of The Geysers, CA
map0.82026/05/01 14:16:0038.836N122.798W2.15 7 km ( 4 mi) WNW of Cobb, CA
map0.42026/05/01 13:31:5833.456N116.624W9.12 12 km ( 7 mi) SSE of Anza, CA
map0.72026/05/01 13:25:4738.812N122.797W3.31 5 km ( 3 mi) NW of The Geysers, CA
map2.52026/05/01 13:10:2939.341N119.013W8.35 20 km (12 mi) ESE of Silver Springs, NV
map0.92026/05/01 13:03:1038.321N122.740W-0.27 42 km (26 mi) W of Quarry near Sears Point, CA(Probable quarry explosion)
map1.52026/05/01 12:05:4139.317N119.052W3.97 18 km (11 mi) SE of Silver Springs, NV
map1.12026/05/01 12:00:4438.816N122.819W2.46 7 km ( 4 mi) NW of The Geysers, CA
map0.42026/05/01 11:54:2938.834N122.793W2.04 6 km ( 4 mi) WNW of Cobb, CA
map0.82026/05/01 11:30:1338.778N122.765W0.33 1 km ( 0 mi) W of The Geysers, CA
map1.72026/05/01 11:26:3339.320N119.058W4.52 18 km (11 mi) SE of Silver Springs, NV
map1.12026/05/01 11:19:0938.828N122.817W1.58 8 km ( 5 mi) NW of The Geysers, CA
map1.22026/05/01 11:05:5032.685N116.650W24.10 13 km ( 8 mi) N of Tecate, B.C., MX
map2.22026/05/01 10:54:4339.276N119.102W7.59 19 km (12 mi) SE of Silver Springs, NV
map1.42026/05/01 10:41:5738.820N122.805W2.68 6 km ( 4 mi) NW of The Geysers, CA
map1.12026/05/01 10:40:4238.832N122.815W1.77 8 km ( 5 mi) NW of The Geysers, CA
map1.72026/05/01 10:40:0539.314N119.066W5.39 18 km (11 mi) SE of Silver Springs, NV
map0.72026/05/01 10:10:5333.991N116.777W16.71 8 km ( 5 mi) N of Cabazon, CA
map0.42026/05/01 10:04:4438.835N122.819W1.98 8 km ( 5 mi) NW of The Geysers, CA